<?xml version="1.0" encoding="UTF-8" standalone="no" ?>
<gpx xmlns="http://www.topografix.com/GPX/1/1" xmlns:xsi="http://www.w3.org/2001/XMLSchema-instance" xsi:schemaLocation="http://www.topografix.com/GPX/1/1 http://www.topografix.com/GPX/1/1/gpx.xsd" version="1.1" creator="VisuGPX - https://www.visugpx.com">
  <metadata>
    <name>RAQUETTE</name>
    <desc><![CDATA[SORTIE RAQUETTE ADEM
FICHIER MARC MOITRIER]]></desc>
  </metadata>
  <wpt lat="48.06572" lon="6.99552">
    <ele>1070.9296875</ele>
    <name><![CDATA[Hôtel de Balveurche]]></name>
    <desc><![CDATA[Chemin]]></desc>
    <cmt><![CDATA[Chemin]]></cmt>
  </wpt>
  <wpt lat="47.96034" lon="6.9213">
    <ele>1148</ele>
    <name><![CDATA[La Chaume à VENTRON]]></name>
    <desc><![CDATA[La Chaume

]]></desc>
    <cmt><![CDATA[La Chaume

]]></cmt>
  </wpt>
  <trk>
    <name><![CDATA[Raquette Rando Collet]]></name>
    <trkseg>
      <trkpt lat="48.05428" lon="7.00485">
        <ele>1105.80078125</ele>
        <time>2012-01-21T08:59:40Z</time>
      </trkpt>
      <trkpt lat="48.05428" lon="7.00485">
        <ele>1105.80078125</ele>
        <time>2012-01-21T08:59:53Z</time>
      </trkpt>
      <trkpt lat="48.05428" lon="7.00485">
        <ele>1105.80078125</ele>
        <time>2012-01-21T08:59:54Z</time>
      </trkpt>
      <trkpt lat="48.05428" lon="7.00485">
        <ele>1105.79296875</ele>
        <time>2012-01-21T09:00:13Z</time>
      </trkpt>
      <trkpt lat="48.05428" lon="7.00485">
        <ele>1105.80859375</ele>
        <time>2012-01-21T09:00:15Z</time>
      </trkpt>
      <trkpt lat="48.05428" lon="7.00485">
        <ele>1105.80859375</ele>
        <time>2012-01-21T09:00:16Z</time>
      </trkpt>
      <trkpt lat="48.05438" lon="7.00507">
        <ele>1108.5859375</ele>
        <time>2012-01-21T09:00:24Z</time>
      </trkpt>
      <trkpt lat="48.05439" lon="7.00508">
        <ele>1108.7734375</ele>
        <time>2012-01-21T09:00:25Z</time>
      </trkpt>
      <trkpt lat="48.0544" lon="7.00511">
        <ele>1109.3359375</ele>
        <time>2012-01-21T09:00:29Z</time>
      </trkpt>
      <trkpt lat="48.05441" lon="7.00513">
        <ele>1109.61328125</ele>
        <time>2012-01-21T09:00:38Z</time>
      </trkpt>
      <trkpt lat="48.05439" lon="7.00517">
        <ele>1110.08984375</ele>
        <time>2012-01-21T09:00:55Z</time>
      </trkpt>
      <trkpt lat="48.05438" lon="7.0052">
        <ele>1110.53515625</ele>
        <time>2012-01-21T09:01:05Z</time>
      </trkpt>
      <trkpt lat="48.0544" lon="7.00525">
        <ele>1111.21484375</ele>
        <time>2012-01-21T09:01:16Z</time>
      </trkpt>
      <trkpt lat="48.0544" lon="7.00526">
        <ele>1111.36328125</ele>
        <time>2012-01-21T09:01:17Z</time>
      </trkpt>
      <trkpt lat="48.05444" lon="7.00536">
        <ele>1112.875</ele>
        <time>2012-01-21T09:01:32Z</time>
      </trkpt>
      <trkpt lat="48.05449" lon="7.0055">
        <ele>1114.765625</ele>
        <time>2012-01-21T09:01:45Z</time>
      </trkpt>
      <trkpt lat="48.05454" lon="7.00564">
        <ele>1116.6484375</ele>
        <time>2012-01-21T09:02:05Z</time>
      </trkpt>
      <trkpt lat="48.05457" lon="7.00576">
        <ele>1118.1328125</ele>
        <time>2012-01-21T09:02:18Z</time>
      </trkpt>
      <trkpt lat="48.05459" lon="7.0059">
        <ele>1120.34375</ele>
        <time>2012-01-21T09:02:29Z</time>
      </trkpt>
      <trkpt lat="48.05459" lon="7.00595">
        <ele>1121.25390625</ele>
        <time>2012-01-21T09:02:50Z</time>
      </trkpt>
      <trkpt lat="48.05461" lon="7.00611">
        <ele>1123.70703125</ele>
        <time>2012-01-21T09:03:06Z</time>
      </trkpt>
      <trkpt lat="48.05462" lon="7.00623">
        <ele>1125.69921875</ele>
        <time>2012-01-21T09:03:19Z</time>
      </trkpt>
      <trkpt lat="48.05462" lon="7.00623">
        <ele>1125.69921875</ele>
        <time>2012-01-21T09:03:23Z</time>
      </trkpt>
      <trkpt lat="48.05467" lon="7.00641">
        <ele>1128.484375</ele>
        <time>2012-01-21T09:03:44Z</time>
      </trkpt>
      <trkpt lat="48.05478" lon="7.00652">
        <ele>1130.3359375</ele>
        <time>2012-01-21T09:04:06Z</time>
      </trkpt>
      <trkpt lat="48.05487" lon="7.00665">
        <ele>1132.54296875</ele>
        <time>2012-01-21T09:04:17Z</time>
      </trkpt>
      <trkpt lat="48.0549" lon="7.00672">
        <ele>1133.8125</ele>
        <time>2012-01-21T09:04:31Z</time>
      </trkpt>
      <trkpt lat="48.05494" lon="7.00681">
        <ele>1134.984375</ele>
        <time>2012-01-21T09:04:46Z</time>
      </trkpt>
      <trkpt lat="48.05495" lon="7.00683">
        <ele>1135.19140625</ele>
        <time>2012-01-21T09:04:47Z</time>
      </trkpt>
      <trkpt lat="48.05497" lon="7.00688">
        <ele>1135.69921875</ele>
        <time>2012-01-21T09:04:51Z</time>
      </trkpt>
      <trkpt lat="48.05503" lon="7.00705">
        <ele>1138.15625</ele>
        <time>2012-01-21T09:05:04Z</time>
      </trkpt>
      <trkpt lat="48.05504" lon="7.00707">
        <ele>1138.37109375</ele>
        <time>2012-01-21T09:05:06Z</time>
      </trkpt>
      <trkpt lat="48.05508" lon="7.00717">
        <ele>1139.92578125</ele>
        <time>2012-01-21T09:05:16Z</time>
      </trkpt>
      <trkpt lat="48.05511" lon="7.00728">
        <ele>1141.8125</ele>
        <time>2012-01-21T09:05:27Z</time>
      </trkpt>
      <trkpt lat="48.05512" lon="7.00733">
        <ele>1142.48046875</ele>
        <time>2012-01-21T09:05:33Z</time>
      </trkpt>
      <trkpt lat="48.05514" lon="7.00739">
        <ele>1143.46875</ele>
        <time>2012-01-21T09:05:43Z</time>
      </trkpt>
      <trkpt lat="48.05515" lon="7.00742">
        <ele>1143.91015625</ele>
        <time>2012-01-21T09:06:05Z</time>
      </trkpt>
      <trkpt lat="48.05515" lon="7.00743">
        <ele>1143.98046875</ele>
        <time>2012-01-21T09:06:10Z</time>
      </trkpt>
      <trkpt lat="48.05516" lon="7.00744">
        <ele>1144.08984375</ele>
        <time>2012-01-21T09:06:22Z</time>
      </trkpt>
      <trkpt lat="48.05516" lon="7.00744">
        <ele>1144.08984375</ele>
        <time>2012-01-21T09:06:52Z</time>
      </trkpt>
      <trkpt lat="48.05516" lon="7.00744">
        <ele>1144.12890625</ele>
        <time>2012-01-21T09:06:57Z</time>
      </trkpt>
      <trkpt lat="48.05516" lon="7.00744">
        <ele>1144.12890625</ele>
        <time>2012-01-21T09:07:04Z</time>
      </trkpt>
      <trkpt lat="48.05516" lon="7.00745">
        <ele>1144.25</ele>
        <time>2012-01-21T09:07:46Z</time>
      </trkpt>
      <trkpt lat="48.05516" lon="7.00745">
        <ele>1144.25</ele>
        <time>2012-01-21T09:07:50Z</time>
      </trkpt>
      <trkpt lat="48.05516" lon="7.00745">
        <ele>1144.25</ele>
        <time>2012-01-21T09:08:01Z</time>
      </trkpt>
      <trkpt lat="48.05517" lon="7.00757">
        <ele>1146.1484375</ele>
        <time>2012-01-21T09:09:54Z</time>
      </trkpt>
      <trkpt lat="48.0552" lon="7.00768">
        <ele>1147.51171875</ele>
        <time>2012-01-21T09:10:06Z</time>
      </trkpt>
      <trkpt lat="48.05523" lon="7.00778">
        <ele>1148.7265625</ele>
        <time>2012-01-21T09:10:18Z</time>
      </trkpt>
      <trkpt lat="48.05526" lon="7.00791">
        <ele>1150.69921875</ele>
        <time>2012-01-21T09:10:31Z</time>
      </trkpt>
      <trkpt lat="48.05527" lon="7.00801">
        <ele>1152.2421875</ele>
        <time>2012-01-21T09:10:53Z</time>
      </trkpt>
      <trkpt lat="48.05532" lon="7.00819">
        <ele>1154.56640625</ele>
        <time>2012-01-21T09:11:08Z</time>
      </trkpt>
      <trkpt lat="48.05534" lon="7.00833">
        <ele>1156.453125</ele>
        <time>2012-01-21T09:11:28Z</time>
      </trkpt>
      <trkpt lat="48.05535" lon="7.0084">
        <ele>1157.203125</ele>
        <time>2012-01-21T09:11:34Z</time>
      </trkpt>
      <trkpt lat="48.05535" lon="7.0084">
        <ele>1157.203125</ele>
        <time>2012-01-21T09:11:35Z</time>
      </trkpt>
      <trkpt lat="48.05535" lon="7.00861">
        <ele>1159.84765625</ele>
        <time>2012-01-21T09:12:06Z</time>
      </trkpt>
      <trkpt lat="48.05539" lon="7.00885">
        <ele>1162.46875</ele>
        <time>2012-01-21T09:12:23Z</time>
      </trkpt>
      <trkpt lat="48.05541" lon="7.00898">
        <ele>1163.96484375</ele>
        <time>2012-01-21T09:12:33Z</time>
      </trkpt>
      <trkpt lat="48.05546" lon="7.00912">
        <ele>1165.20703125</ele>
        <time>2012-01-21T09:12:48Z</time>
      </trkpt>
      <trkpt lat="48.05546" lon="7.00925">
        <ele>1166.7734375</ele>
        <time>2012-01-21T09:13:10Z</time>
      </trkpt>
      <trkpt lat="48.05548" lon="7.00933">
        <ele>1167.5078125</ele>
        <time>2012-01-21T09:14:01Z</time>
      </trkpt>
      <trkpt lat="48.05548" lon="7.00933">
        <ele>1167.5078125</ele>
        <time>2012-01-21T09:14:02Z</time>
      </trkpt>
      <trkpt lat="48.05548" lon="7.00933">
        <ele>1167.5078125</ele>
        <time>2012-01-21T09:14:06Z</time>
      </trkpt>
      <trkpt lat="48.05548" lon="7.00933">
        <ele>1167.5078125</ele>
        <time>2012-01-21T09:14:11Z</time>
      </trkpt>
      <trkpt lat="48.05548" lon="7.00933">
        <ele>1167.5078125</ele>
        <time>2012-01-21T09:15:40Z</time>
      </trkpt>
      <trkpt lat="48.05548" lon="7.00949">
        <ele>1169.40625</ele>
        <time>2012-01-21T09:15:57Z</time>
      </trkpt>
      <trkpt lat="48.05546" lon="7.00954">
        <ele>1170.1953125</ele>
        <time>2012-01-21T09:16:03Z</time>
      </trkpt>
      <trkpt lat="48.05542" lon="7.00968">
        <ele>1172.34375</ele>
        <time>2012-01-21T09:16:14Z</time>
      </trkpt>
      <trkpt lat="48.05539" lon="7.00982">
        <ele>1174.29296875</ele>
        <time>2012-01-21T09:16:38Z</time>
      </trkpt>
      <trkpt lat="48.0554" lon="7.00988">
        <ele>1174.88671875</ele>
        <time>2012-01-21T09:16:43Z</time>
      </trkpt>
      <trkpt lat="48.0554" lon="7.00989">
        <ele>1174.98828125</ele>
        <time>2012-01-21T09:16:44Z</time>
      </trkpt>
      <trkpt lat="48.05539" lon="7.01">
        <ele>1176.05078125</ele>
        <time>2012-01-21T09:16:58Z</time>
      </trkpt>
      <trkpt lat="48.05535" lon="7.01013">
        <ele>1177.359375</ele>
        <time>2012-01-21T09:17:12Z</time>
      </trkpt>
      <trkpt lat="48.05532" lon="7.01022">
        <ele>1178.41015625</ele>
        <time>2012-01-21T09:17:17Z</time>
      </trkpt>
      <trkpt lat="48.05529" lon="7.01027">
        <ele>1179.0234375</ele>
        <time>2012-01-21T09:17:21Z</time>
      </trkpt>
      <trkpt lat="48.05522" lon="7.01034">
        <ele>1180.2109375</ele>
        <time>2012-01-21T09:17:35Z</time>
      </trkpt>
      <trkpt lat="48.05517" lon="7.01042">
        <ele>1181.24609375</ele>
        <time>2012-01-21T09:17:44Z</time>
      </trkpt>
      <trkpt lat="48.05513" lon="7.01053">
        <ele>1182.4765625</ele>
        <time>2012-01-21T09:17:51Z</time>
      </trkpt>
      <trkpt lat="48.0551" lon="7.01068">
        <ele>1183.84765625</ele>
        <time>2012-01-21T09:18:03Z</time>
      </trkpt>
      <trkpt lat="48.05509" lon="7.01069">
        <ele>1183.95703125</ele>
        <time>2012-01-21T09:18:05Z</time>
      </trkpt>
      <trkpt lat="48.05509" lon="7.01072">
        <ele>1184.265625</ele>
        <time>2012-01-21T09:18:09Z</time>
      </trkpt>
      <trkpt lat="48.05508" lon="7.01077">
        <ele>1184.76171875</ele>
        <time>2012-01-21T09:18:15Z</time>
      </trkpt>
      <trkpt lat="48.05509" lon="7.01085">
        <ele>1185.32421875</ele>
        <time>2012-01-21T09:18:28Z</time>
      </trkpt>
      <trkpt lat="48.05512" lon="7.01105">
        <ele>1186.8203125</ele>
        <time>2012-01-21T09:18:42Z</time>
      </trkpt>
      <trkpt lat="48.05516" lon="7.0112">
        <ele>1187.62109375</ele>
        <time>2012-01-21T09:18:54Z</time>
      </trkpt>
      <trkpt lat="48.05517" lon="7.01127">
        <ele>1188.18359375</ele>
        <time>2012-01-21T09:19:09Z</time>
      </trkpt>
      <trkpt lat="48.05522" lon="7.01134">
        <ele>1188.30859375</ele>
        <time>2012-01-21T09:19:17Z</time>
      </trkpt>
      <trkpt lat="48.05524" lon="7.01135">
        <ele>1188.234375</ele>
        <time>2012-01-21T09:19:19Z</time>
      </trkpt>
      <trkpt lat="48.05526" lon="7.01137">
        <ele>1188.32421875</ele>
        <time>2012-01-21T09:19:26Z</time>
      </trkpt>
      <trkpt lat="48.05529" lon="7.01137">
        <ele>1188.0234375</ele>
        <time>2012-01-21T09:19:39Z</time>
      </trkpt>
      <trkpt lat="48.05529" lon="7.01138">
        <ele>1188.0390625</ele>
        <time>2012-01-21T09:19:51Z</time>
      </trkpt>
      <trkpt lat="48.05536" lon="7.01142">
        <ele>1187.87109375</ele>
        <time>2012-01-21T09:21:48Z</time>
      </trkpt>
      <trkpt lat="48.05536" lon="7.01142">
        <ele>1187.87109375</ele>
        <time>2012-01-21T09:21:54Z</time>
      </trkpt>
      <trkpt lat="48.05535" lon="7.01142">
        <ele>1187.8828125</ele>
        <time>2012-01-21T09:23:07Z</time>
      </trkpt>
      <trkpt lat="48.05538" lon="7.01145">
        <ele>1187.94921875</ele>
        <time>2012-01-21T09:23:18Z</time>
      </trkpt>
      <trkpt lat="48.05546" lon="7.01156">
        <ele>1188.18359375</ele>
        <time>2012-01-21T09:23:33Z</time>
      </trkpt>
      <trkpt lat="48.05546" lon="7.01171">
        <ele>1189.87109375</ele>
        <time>2012-01-21T09:23:46Z</time>
      </trkpt>
      <trkpt lat="48.05545" lon="7.01185">
        <ele>1191.57421875</ele>
        <time>2012-01-21T09:24:00Z</time>
      </trkpt>
      <trkpt lat="48.05546" lon="7.01198">
        <ele>1192.8828125</ele>
        <time>2012-01-21T09:24:12Z</time>
      </trkpt>
      <trkpt lat="48.05547" lon="7.01214">
        <ele>1194.609375</ele>
        <time>2012-01-21T09:24:24Z</time>
      </trkpt>
      <trkpt lat="48.05548" lon="7.01221">
        <ele>1195.35546875</ele>
        <time>2012-01-21T09:24:36Z</time>
      </trkpt>
      <trkpt lat="48.05553" lon="7.01232">
        <ele>1196.28125</ele>
        <time>2012-01-21T09:24:47Z</time>
      </trkpt>
      <trkpt lat="48.05556" lon="7.01249">
        <ele>1198.1640625</ele>
        <time>2012-01-21T09:25:01Z</time>
      </trkpt>
      <trkpt lat="48.0556" lon="7.0126">
        <ele>1199.40234375</ele>
        <time>2012-01-21T09:25:13Z</time>
      </trkpt>
      <trkpt lat="48.05565" lon="7.0127">
        <ele>1200.4453125</ele>
        <time>2012-01-21T09:25:26Z</time>
      </trkpt>
      <trkpt lat="48.05569" lon="7.01281">
        <ele>1201.6953125</ele>
        <time>2012-01-21T09:25:36Z</time>
      </trkpt>
      <trkpt lat="48.05573" lon="7.01285">
        <ele>1201.8203125</ele>
        <time>2012-01-21T09:25:51Z</time>
      </trkpt>
      <trkpt lat="48.05576" lon="7.01288">
        <ele>1201.796875</ele>
        <time>2012-01-21T09:26:04Z</time>
      </trkpt>
      <trkpt lat="48.05579" lon="7.01295">
        <ele>1202.08203125</ele>
        <time>2012-01-21T09:26:21Z</time>
      </trkpt>
      <trkpt lat="48.05581" lon="7.01306">
        <ele>1203.31640625</ele>
        <time>2012-01-21T09:26:31Z</time>
      </trkpt>
      <trkpt lat="48.05583" lon="7.01316">
        <ele>1204.3984375</ele>
        <time>2012-01-21T09:26:41Z</time>
      </trkpt>
      <trkpt lat="48.05583" lon="7.01319">
        <ele>1204.69140625</ele>
        <time>2012-01-21T09:26:42Z</time>
      </trkpt>
      <trkpt lat="48.05585" lon="7.0133">
        <ele>1205.75390625</ele>
        <time>2012-01-21T09:26:54Z</time>
      </trkpt>
      <trkpt lat="48.05586" lon="7.01339">
        <ele>1206.61328125</ele>
        <time>2012-01-21T09:27:17Z</time>
      </trkpt>
      <trkpt lat="48.05587" lon="7.01342">
        <ele>1206.7890625</ele>
        <time>2012-01-21T09:27:36Z</time>
      </trkpt>
      <trkpt lat="48.05588" lon="7.01345">
        <ele>1207.01953125</ele>
        <time>2012-01-21T09:27:54Z</time>
      </trkpt>
      <trkpt lat="48.05587" lon="7.01356">
        <ele>1208.37109375</ele>
        <time>2012-01-21T09:28:06Z</time>
      </trkpt>
      <trkpt lat="48.05588" lon="7.0136">
        <ele>1208.72265625</ele>
        <time>2012-01-21T09:29:28Z</time>
      </trkpt>
      <trkpt lat="48.05588" lon="7.01362">
        <ele>1208.921875</ele>
        <time>2012-01-21T09:30:45Z</time>
      </trkpt>
      <trkpt lat="48.05588" lon="7.01366">
        <ele>1209.421875</ele>
        <time>2012-01-21T09:31:05Z</time>
      </trkpt>
      <trkpt lat="48.05588" lon="7.01366">
        <ele>1209.34375</ele>
        <time>2012-01-21T09:31:28Z</time>
      </trkpt>
      <trkpt lat="48.05588" lon="7.01366">
        <ele>1209.3203125</ele>
        <time>2012-01-21T09:31:58Z</time>
      </trkpt>
      <trkpt lat="48.05588" lon="7.01366">
        <ele>1209.3203125</ele>
        <time>2012-01-21T09:32:02Z</time>
      </trkpt>
      <trkpt lat="48.05588" lon="7.01366">
        <ele>1209.3203125</ele>
        <time>2012-01-21T09:32:09Z</time>
      </trkpt>
      <trkpt lat="48.05588" lon="7.01366">
        <ele>1209.3203125</ele>
        <time>2012-01-21T09:32:13Z</time>
      </trkpt>
      <trkpt lat="48.05588" lon="7.01366">
        <ele>1209.3203125</ele>
        <time>2012-01-21T09:32:16Z</time>
      </trkpt>
      <trkpt lat="48.05588" lon="7.01366">
        <ele>1209.3203125</ele>
        <time>2012-01-21T09:32:20Z</time>
      </trkpt>
      <trkpt lat="48.05588" lon="7.01366">
        <ele>1209.33984375</ele>
        <time>2012-01-21T09:32:32Z</time>
      </trkpt>
      <trkpt lat="48.05588" lon="7.01366">
        <ele>1209.34765625</ele>
        <time>2012-01-21T09:32:54Z</time>
      </trkpt>
      <trkpt lat="48.05589" lon="7.01369">
        <ele>1209.6484375</ele>
        <time>2012-01-21T09:33:16Z</time>
      </trkpt>
      <trkpt lat="48.05587" lon="7.0138">
        <ele>1211.03125</ele>
        <time>2012-01-21T09:33:36Z</time>
      </trkpt>
      <trkpt lat="48.05591" lon="7.01399">
        <ele>1212.765625</ele>
        <time>2012-01-21T09:33:50Z</time>
      </trkpt>
      <trkpt lat="48.05591" lon="7.01414">
        <ele>1214.40234375</ele>
        <time>2012-01-21T09:34:03Z</time>
      </trkpt>
      <trkpt lat="48.05594" lon="7.01427">
        <ele>1215.7890625</ele>
        <time>2012-01-21T09:34:15Z</time>
      </trkpt>
      <trkpt lat="48.05596" lon="7.01436">
        <ele>1216.58984375</ele>
        <time>2012-01-21T09:34:28Z</time>
      </trkpt>
      <trkpt lat="48.05596" lon="7.01444">
        <ele>1217.48828125</ele>
        <time>2012-01-21T09:34:42Z</time>
      </trkpt>
      <trkpt lat="48.056" lon="7.01457">
        <ele>1218.7109375</ele>
        <time>2012-01-21T09:34:56Z</time>
      </trkpt>
      <trkpt lat="48.05601" lon="7.01468">
        <ele>1219.8515625</ele>
        <time>2012-01-21T09:35:13Z</time>
      </trkpt>
      <trkpt lat="48.05607" lon="7.01485">
        <ele>1221.265625</ele>
        <time>2012-01-21T09:35:23Z</time>
      </trkpt>
      <trkpt lat="48.05611" lon="7.01498">
        <ele>1222.32421875</ele>
        <time>2012-01-21T09:35:34Z</time>
      </trkpt>
      <trkpt lat="48.05612" lon="7.01504">
        <ele>1223.0546875</ele>
        <time>2012-01-21T09:35:43Z</time>
      </trkpt>
      <trkpt lat="48.05611" lon="7.01508">
        <ele>1223.71875</ele>
        <time>2012-01-21T09:35:57Z</time>
      </trkpt>
      <trkpt lat="48.05616" lon="7.01529">
        <ele>1225.81640625</ele>
        <time>2012-01-21T09:36:12Z</time>
      </trkpt>
      <trkpt lat="48.05626" lon="7.01538">
        <ele>1226.015625</ele>
        <time>2012-01-21T09:36:24Z</time>
      </trkpt>
      <trkpt lat="48.05634" lon="7.01548">
        <ele>1226.48828125</ele>
        <time>2012-01-21T09:36:39Z</time>
      </trkpt>
      <trkpt lat="48.05636" lon="7.01551">
        <ele>1226.73828125</ele>
        <time>2012-01-21T09:36:41Z</time>
      </trkpt>
      <trkpt lat="48.05639" lon="7.01563">
        <ele>1228.1015625</ele>
        <time>2012-01-21T09:36:52Z</time>
      </trkpt>
      <trkpt lat="48.05642" lon="7.01569">
        <ele>1228.609375</ele>
        <time>2012-01-21T09:37:02Z</time>
      </trkpt>
      <trkpt lat="48.05645" lon="7.01576">
        <ele>1229.3046875</ele>
        <time>2012-01-21T09:37:13Z</time>
      </trkpt>
      <trkpt lat="48.0565" lon="7.01587">
        <ele>1230.171875</ele>
        <time>2012-01-21T09:37:25Z</time>
      </trkpt>
      <trkpt lat="48.05656" lon="7.01595">
        <ele>1230.6015625</ele>
        <time>2012-01-21T09:37:37Z</time>
      </trkpt>
      <trkpt lat="48.05664" lon="7.01606">
        <ele>1231.3046875</ele>
        <time>2012-01-21T09:37:46Z</time>
      </trkpt>
      <trkpt lat="48.05666" lon="7.0161">
        <ele>1231.57421875</ele>
        <time>2012-01-21T09:37:51Z</time>
      </trkpt>
      <trkpt lat="48.05671" lon="7.01618">
        <ele>1232.125</ele>
        <time>2012-01-21T09:37:58Z</time>
      </trkpt>
      <trkpt lat="48.05678" lon="7.01626">
        <ele>1232.58984375</ele>
        <time>2012-01-21T09:38:13Z</time>
      </trkpt>
      <trkpt lat="48.05683" lon="7.01631">
        <ele>1232.9375</ele>
        <time>2012-01-21T09:38:19Z</time>
      </trkpt>
      <trkpt lat="48.05687" lon="7.01636">
        <ele>1233.328125</ele>
        <time>2012-01-21T09:38:25Z</time>
      </trkpt>
      <trkpt lat="48.05687" lon="7.01639">
        <ele>1233.7109375</ele>
        <time>2012-01-21T09:38:33Z</time>
      </trkpt>
      <trkpt lat="48.05691" lon="7.0165">
        <ele>1234.99609375</ele>
        <time>2012-01-21T09:38:41Z</time>
      </trkpt>
      <trkpt lat="48.05693" lon="7.01658">
        <ele>1235.921875</ele>
        <time>2012-01-21T09:39:03Z</time>
      </trkpt>
      <trkpt lat="48.05693" lon="7.01661">
        <ele>1236.08984375</ele>
        <time>2012-01-21T09:40:32Z</time>
      </trkpt>
      <trkpt lat="48.05693" lon="7.01663">
        <ele>1236.27734375</ele>
        <time>2012-01-21T09:41:53Z</time>
      </trkpt>
      <trkpt lat="48.05692" lon="7.01664">
        <ele>1236.43359375</ele>
        <time>2012-01-21T09:44:46Z</time>
      </trkpt>
      <trkpt lat="48.05693" lon="7.01667">
        <ele>1236.5859375</ele>
        <time>2012-01-21T09:45:30Z</time>
      </trkpt>
      <trkpt lat="48.05693" lon="7.01667">
        <ele>1236.5859375</ele>
        <time>2012-01-21T09:45:36Z</time>
      </trkpt>
      <trkpt lat="48.05693" lon="7.01667">
        <ele>1236.5859375</ele>
        <time>2012-01-21T09:45:45Z</time>
      </trkpt>
      <trkpt lat="48.05693" lon="7.01667">
        <ele>1236.5859375</ele>
        <time>2012-01-21T09:45:50Z</time>
      </trkpt>
      <trkpt lat="48.05693" lon="7.01667">
        <ele>1236.5859375</ele>
        <time>2012-01-21T09:45:55Z</time>
      </trkpt>
      <trkpt lat="48.05693" lon="7.01667">
        <ele>1236.58203125</ele>
        <time>2012-01-21T09:47:01Z</time>
      </trkpt>
      <trkpt lat="48.05693" lon="7.01667">
        <ele>1236.58203125</ele>
        <time>2012-01-21T09:47:10Z</time>
      </trkpt>
      <trkpt lat="48.05692" lon="7.01667">
        <ele>1236.59375</ele>
        <time>2012-01-21T09:48:38Z</time>
      </trkpt>
      <trkpt lat="48.05692" lon="7.01667">
        <ele>1236.59375</ele>
        <time>2012-01-21T09:48:39Z</time>
      </trkpt>
      <trkpt lat="48.05693" lon="7.01678">
        <ele>1237.41015625</ele>
        <time>2012-01-21T09:50:00Z</time>
      </trkpt>
      <trkpt lat="48.05684" lon="7.01684">
        <ele>1238.21875</ele>
        <time>2012-01-21T09:50:11Z</time>
      </trkpt>
      <trkpt lat="48.05681" lon="7.01687">
        <ele>1238.51953125</ele>
        <time>2012-01-21T09:50:24Z</time>
      </trkpt>
      <trkpt lat="48.05673" lon="7.01693">
        <ele>1239.2109375</ele>
        <time>2012-01-21T09:50:35Z</time>
      </trkpt>
      <trkpt lat="48.05665" lon="7.01701">
        <ele>1239.8828125</ele>
        <time>2012-01-21T09:50:48Z</time>
      </trkpt>
      <trkpt lat="48.05662" lon="7.01704">
        <ele>1240.14453125</ele>
        <time>2012-01-21T09:50:52Z</time>
      </trkpt>
      <trkpt lat="48.05655" lon="7.01709">
        <ele>1240.55078125</ele>
        <time>2012-01-21T09:51:04Z</time>
      </trkpt>
      <trkpt lat="48.05648" lon="7.01713">
        <ele>1240.83984375</ele>
        <time>2012-01-21T09:51:15Z</time>
      </trkpt>
      <trkpt lat="48.05638" lon="7.01715">
        <ele>1241.00390625</ele>
        <time>2012-01-21T09:51:27Z</time>
      </trkpt>
      <trkpt lat="48.05629" lon="7.01718">
        <ele>1241.21484375</ele>
        <time>2012-01-21T09:51:38Z</time>
      </trkpt>
      <trkpt lat="48.05626" lon="7.01719">
        <ele>1241.26953125</ele>
        <time>2012-01-21T09:51:41Z</time>
      </trkpt>
      <trkpt lat="48.05617" lon="7.01713">
        <ele>1241.19140625</ele>
        <time>2012-01-21T09:51:54Z</time>
      </trkpt>
      <trkpt lat="48.05608" lon="7.01713">
        <ele>1241.296875</ele>
        <time>2012-01-21T09:52:05Z</time>
      </trkpt>
      <trkpt lat="48.05603" lon="7.01718">
        <ele>1241.46484375</ele>
        <time>2012-01-21T09:52:18Z</time>
      </trkpt>
      <trkpt lat="48.05594" lon="7.01722">
        <ele>1241.62890625</ele>
        <time>2012-01-21T09:52:29Z</time>
      </trkpt>
      <trkpt lat="48.05591" lon="7.01725">
        <ele>1241.71484375</ele>
        <time>2012-01-21T09:52:32Z</time>
      </trkpt>
      <trkpt lat="48.05585" lon="7.01729">
        <ele>1241.82421875</ele>
        <time>2012-01-21T09:52:38Z</time>
      </trkpt>
      <trkpt lat="48.05573" lon="7.01728">
        <ele>1241.85546875</ele>
        <time>2012-01-21T09:52:50Z</time>
      </trkpt>
      <trkpt lat="48.05566" lon="7.01728">
        <ele>1241.87890625</ele>
        <time>2012-01-21T09:53:01Z</time>
      </trkpt>
      <trkpt lat="48.05557" lon="7.01729">
        <ele>1241.90625</ele>
        <time>2012-01-21T09:53:12Z</time>
      </trkpt>
      <trkpt lat="48.05548" lon="7.01731">
        <ele>1241.9296875</ele>
        <time>2012-01-21T09:53:24Z</time>
      </trkpt>
      <trkpt lat="48.05543" lon="7.01732">
        <ele>1241.94140625</ele>
        <time>2012-01-21T09:53:32Z</time>
      </trkpt>
      <trkpt lat="48.05533" lon="7.01739">
        <ele>1241.99609375</ele>
        <time>2012-01-21T09:53:43Z</time>
      </trkpt>
      <trkpt lat="48.05528" lon="7.01737">
        <ele>1241.98828125</ele>
        <time>2012-01-21T09:53:51Z</time>
      </trkpt>
      <trkpt lat="48.05524" lon="7.01733">
        <ele>1241.96875</ele>
        <time>2012-01-21T09:53:55Z</time>
      </trkpt>
      <trkpt lat="48.05517" lon="7.01732">
        <ele>1241.97265625</ele>
        <time>2012-01-21T09:54:02Z</time>
      </trkpt>
      <trkpt lat="48.05506" lon="7.01737">
        <ele>1241.99609375</ele>
        <time>2012-01-21T09:54:13Z</time>
      </trkpt>
      <trkpt lat="48.055" lon="7.01737">
        <ele>1241.99609375</ele>
        <time>2012-01-21T09:54:23Z</time>
      </trkpt>
      <trkpt lat="48.0549" lon="7.01732">
        <ele>1242</ele>
        <time>2012-01-21T09:54:34Z</time>
      </trkpt>
      <trkpt lat="48.05475" lon="7.01734">
        <ele>1242</ele>
        <time>2012-01-21T09:54:48Z</time>
      </trkpt>
      <trkpt lat="48.05467" lon="7.01736">
        <ele>1242</ele>
        <time>2012-01-21T09:54:59Z</time>
      </trkpt>
      <trkpt lat="48.05455" lon="7.01739">
        <ele>1242</ele>
        <time>2012-01-21T09:55:11Z</time>
      </trkpt>
      <trkpt lat="48.05443" lon="7.01739">
        <ele>1242</ele>
        <time>2012-01-21T09:55:24Z</time>
      </trkpt>
      <trkpt lat="48.05435" lon="7.0174">
        <ele>1241.98828125</ele>
        <time>2012-01-21T09:55:33Z</time>
      </trkpt>
      <trkpt lat="48.05424" lon="7.01736">
        <ele>1242</ele>
        <time>2012-01-21T09:55:45Z</time>
      </trkpt>
      <trkpt lat="48.05411" lon="7.01739">
        <ele>1242</ele>
        <time>2012-01-21T09:55:57Z</time>
      </trkpt>
      <trkpt lat="48.05401" lon="7.01744">
        <ele>1241.890625</ele>
        <time>2012-01-21T09:56:10Z</time>
      </trkpt>
      <trkpt lat="48.05396" lon="7.01753">
        <ele>1241.73828125</ele>
        <time>2012-01-21T09:56:20Z</time>
      </trkpt>
      <trkpt lat="48.05392" lon="7.01762">
        <ele>1241.609375</ele>
        <time>2012-01-21T09:56:30Z</time>
      </trkpt>
      <trkpt lat="48.05386" lon="7.01776">
        <ele>1241.4296875</ele>
        <time>2012-01-21T09:56:41Z</time>
      </trkpt>
      <trkpt lat="48.05384" lon="7.01787">
        <ele>1241.31640625</ele>
        <time>2012-01-21T09:56:53Z</time>
      </trkpt>
      <trkpt lat="48.05383" lon="7.01791">
        <ele>1241.2734375</ele>
        <time>2012-01-21T09:57:05Z</time>
      </trkpt>
      <trkpt lat="48.05381" lon="7.01794">
        <ele>1241.24609375</ele>
        <time>2012-01-21T09:57:16Z</time>
      </trkpt>
      <trkpt lat="48.05381" lon="7.01794">
        <ele>1241.24609375</ele>
        <time>2012-01-21T09:57:20Z</time>
      </trkpt>
      <trkpt lat="48.05381" lon="7.01794">
        <ele>1241.24609375</ele>
        <time>2012-01-21T09:57:30Z</time>
      </trkpt>
      <trkpt lat="48.05381" lon="7.01794">
        <ele>1241.24609375</ele>
        <time>2012-01-21T09:57:34Z</time>
      </trkpt>
      <trkpt lat="48.05381" lon="7.01794">
        <ele>1241.24609375</ele>
        <time>2012-01-21T09:57:47Z</time>
      </trkpt>
      <trkpt lat="48.05381" lon="7.01794">
        <ele>1241.24609375</ele>
        <time>2012-01-21T09:58:28Z</time>
      </trkpt>
      <trkpt lat="48.05381" lon="7.01798">
        <ele>1241.2109375</ele>
        <time>2012-01-21T09:58:52Z</time>
      </trkpt>
      <trkpt lat="48.05381" lon="7.01804">
        <ele>1241.15625</ele>
        <time>2012-01-21T09:59:09Z</time>
      </trkpt>
      <trkpt lat="48.05381" lon="7.01806">
        <ele>1241.14453125</ele>
        <time>2012-01-21T09:59:16Z</time>
      </trkpt>
      <trkpt lat="48.05381" lon="7.0181">
        <ele>1241.10546875</ele>
        <time>2012-01-21T09:59:18Z</time>
      </trkpt>
      <trkpt lat="48.05384" lon="7.01829">
        <ele>1240.98046875</ele>
        <time>2012-01-21T09:59:34Z</time>
      </trkpt>
      <trkpt lat="48.05383" lon="7.01848">
        <ele>1240.9140625</ele>
        <time>2012-01-21T09:59:45Z</time>
      </trkpt>
      <trkpt lat="48.05383" lon="7.01862">
        <ele>1240.87109375</ele>
        <time>2012-01-21T09:59:55Z</time>
      </trkpt>
      <trkpt lat="48.05379" lon="7.01873">
        <ele>1240.80859375</ele>
        <time>2012-01-21T10:00:03Z</time>
      </trkpt>
      <trkpt lat="48.05374" lon="7.01881">
        <ele>1240.73046875</ele>
        <time>2012-01-21T10:00:15Z</time>
      </trkpt>
      <trkpt lat="48.05368" lon="7.01888">
        <ele>1240.6484375</ele>
        <time>2012-01-21T10:00:27Z</time>
      </trkpt>
      <trkpt lat="48.05366" lon="7.0189">
        <ele>1240.6171875</ele>
        <time>2012-01-21T10:00:29Z</time>
      </trkpt>
      <trkpt lat="48.05357" lon="7.01895">
        <ele>1240.48828125</ele>
        <time>2012-01-21T10:00:37Z</time>
      </trkpt>
      <trkpt lat="48.05348" lon="7.01897">
        <ele>1240.375</ele>
        <time>2012-01-21T10:00:50Z</time>
      </trkpt>
      <trkpt lat="48.05347" lon="7.01896">
        <ele>1240.37890625</ele>
        <time>2012-01-21T10:00:53Z</time>
      </trkpt>
      <trkpt lat="48.05347" lon="7.01896">
        <ele>1240.37890625</ele>
        <time>2012-01-21T10:01:14Z</time>
      </trkpt>
      <trkpt lat="48.05348" lon="7.01897">
        <ele>1240.37890625</ele>
        <time>2012-01-21T10:01:36Z</time>
      </trkpt>
      <trkpt lat="48.05348" lon="7.01897">
        <ele>1240.37890625</ele>
        <time>2012-01-21T10:02:06Z</time>
      </trkpt>
      <trkpt lat="48.05346" lon="7.01894">
        <ele>1240.3828125</ele>
        <time>2012-01-21T10:02:09Z</time>
      </trkpt>
      <trkpt lat="48.0534" lon="7.01891">
        <ele>1240.3515625</ele>
        <time>2012-01-21T10:02:14Z</time>
      </trkpt>
      <trkpt lat="48.05331" lon="7.01894">
        <ele>1240.23046875</ele>
        <time>2012-01-21T10:02:25Z</time>
      </trkpt>
      <trkpt lat="48.0532" lon="7.01898">
        <ele>1239.90625</ele>
        <time>2012-01-21T10:02:36Z</time>
      </trkpt>
      <trkpt lat="48.0531" lon="7.01902">
        <ele>1239.1953125</ele>
        <time>2012-01-21T10:02:47Z</time>
      </trkpt>
      <trkpt lat="48.0531" lon="7.01903">
        <ele>1239.140625</ele>
        <time>2012-01-21T10:02:48Z</time>
      </trkpt>
      <trkpt lat="48.05309" lon="7.01904">
        <ele>1239.078125</ele>
        <time>2012-01-21T10:02:49Z</time>
      </trkpt>
      <trkpt lat="48.05302" lon="7.01911">
        <ele>1238.4140625</ele>
        <time>2012-01-21T10:03:00Z</time>
      </trkpt>
      <trkpt lat="48.05301" lon="7.01912">
        <ele>1238.2421875</ele>
        <time>2012-01-21T10:03:03Z</time>
      </trkpt>
      <trkpt lat="48.05291" lon="7.01917">
        <ele>1237.421875</ele>
        <time>2012-01-21T10:03:13Z</time>
      </trkpt>
      <trkpt lat="48.05283" lon="7.01927">
        <ele>1236.4296875</ele>
        <time>2012-01-21T10:03:24Z</time>
      </trkpt>
      <trkpt lat="48.05278" lon="7.01933">
        <ele>1235.8203125</ele>
        <time>2012-01-21T10:03:31Z</time>
      </trkpt>
      <trkpt lat="48.05268" lon="7.01946">
        <ele>1234.51171875</ele>
        <time>2012-01-21T10:03:45Z</time>
      </trkpt>
      <trkpt lat="48.05259" lon="7.01959">
        <ele>1233.2421875</ele>
        <time>2012-01-21T10:03:56Z</time>
      </trkpt>
      <trkpt lat="48.05248" lon="7.01969">
        <ele>1231.734375</ele>
        <time>2012-01-21T10:04:09Z</time>
      </trkpt>
      <trkpt lat="48.05244" lon="7.01978">
        <ele>1231.00390625</ele>
        <time>2012-01-21T10:04:17Z</time>
      </trkpt>
      <trkpt lat="48.05239" lon="7.01982">
        <ele>1230.33984375</ele>
        <time>2012-01-21T10:04:24Z</time>
      </trkpt>
      <trkpt lat="48.05233" lon="7.01989">
        <ele>1229.18359375</ele>
        <time>2012-01-21T10:04:33Z</time>
      </trkpt>
      <trkpt lat="48.05222" lon="7.01999">
        <ele>1227.36328125</ele>
        <time>2012-01-21T10:04:45Z</time>
      </trkpt>
      <trkpt lat="48.05214" lon="7.02007">
        <ele>1226.12890625</ele>
        <time>2012-01-21T10:04:56Z</time>
      </trkpt>
      <trkpt lat="48.05212" lon="7.0201">
        <ele>1225.7109375</ele>
        <time>2012-01-21T10:04:59Z</time>
      </trkpt>
      <trkpt lat="48.05201" lon="7.02021">
        <ele>1224.1796875</ele>
        <time>2012-01-21T10:05:12Z</time>
      </trkpt>
      <trkpt lat="48.05197" lon="7.02024">
        <ele>1223.640625</ele>
        <time>2012-01-21T10:05:17Z</time>
      </trkpt>
      <trkpt lat="48.05185" lon="7.02034">
        <ele>1222.1015625</ele>
        <time>2012-01-21T10:05:30Z</time>
      </trkpt>
      <trkpt lat="48.05184" lon="7.02036">
        <ele>1222.01953125</ele>
        <time>2012-01-21T10:05:31Z</time>
      </trkpt>
      <trkpt lat="48.05181" lon="7.0204">
        <ele>1221.6484375</ele>
        <time>2012-01-21T10:05:35Z</time>
      </trkpt>
      <trkpt lat="48.05177" lon="7.02043">
        <ele>1221.13671875</ele>
        <time>2012-01-21T10:05:39Z</time>
      </trkpt>
      <trkpt lat="48.05167" lon="7.02045">
        <ele>1220.1171875</ele>
        <time>2012-01-21T10:05:47Z</time>
      </trkpt>
      <trkpt lat="48.05164" lon="7.02046">
        <ele>1219.875</ele>
        <time>2012-01-21T10:05:49Z</time>
      </trkpt>
      <trkpt lat="48.05159" lon="7.02042">
        <ele>1219.3046875</ele>
        <time>2012-01-21T10:05:55Z</time>
      </trkpt>
      <trkpt lat="48.05148" lon="7.02041">
        <ele>1215.33203125</ele>
        <time>2012-01-21T10:06:05Z</time>
      </trkpt>
      <trkpt lat="48.05146" lon="7.0204">
        <ele>1214.2265625</ele>
        <time>2012-01-21T10:06:07Z</time>
      </trkpt>
      <trkpt lat="48.05139" lon="7.02038">
        <ele>1210.5390625</ele>
        <time>2012-01-21T10:06:15Z</time>
      </trkpt>
      <trkpt lat="48.05135" lon="7.02035">
        <ele>1208.03125</ele>
        <time>2012-01-21T10:06:23Z</time>
      </trkpt>
      <trkpt lat="48.05134" lon="7.02034">
        <ele>1207.51171875</ele>
        <time>2012-01-21T10:06:26Z</time>
      </trkpt>
      <trkpt lat="48.05133" lon="7.02033">
        <ele>1207.02734375</ele>
        <time>2012-01-21T10:06:28Z</time>
      </trkpt>
      <trkpt lat="48.05133" lon="7.02033">
        <ele>1206.8515625</ele>
        <time>2012-01-21T10:06:30Z</time>
      </trkpt>
      <trkpt lat="48.05132" lon="7.02032">
        <ele>1206.39453125</ele>
        <time>2012-01-21T10:06:44Z</time>
      </trkpt>
      <trkpt lat="48.05132" lon="7.02032">
        <ele>1206.39453125</ele>
        <time>2012-01-21T10:06:48Z</time>
      </trkpt>
      <trkpt lat="48.05132" lon="7.02032">
        <ele>1206.39453125</ele>
        <time>2012-01-21T10:07:03Z</time>
      </trkpt>
      <trkpt lat="48.05132" lon="7.02032">
        <ele>1206.39453125</ele>
        <time>2012-01-21T10:07:07Z</time>
      </trkpt>
      <trkpt lat="48.05132" lon="7.02032">
        <ele>1206.39453125</ele>
        <time>2012-01-21T10:07:11Z</time>
      </trkpt>
      <trkpt lat="48.05132" lon="7.02032">
        <ele>1206.390625</ele>
        <time>2012-01-21T10:07:30Z</time>
      </trkpt>
      <trkpt lat="48.05132" lon="7.02032">
        <ele>1206.390625</ele>
        <time>2012-01-21T10:07:38Z</time>
      </trkpt>
      <trkpt lat="48.05132" lon="7.02032">
        <ele>1206.390625</ele>
        <time>2012-01-21T10:07:40Z</time>
      </trkpt>
      <trkpt lat="48.05132" lon="7.02032">
        <ele>1206.390625</ele>
        <time>2012-01-21T10:07:43Z</time>
      </trkpt>
      <trkpt lat="48.05131" lon="7.02031">
        <ele>1206.08984375</ele>
        <time>2012-01-21T10:07:45Z</time>
      </trkpt>
      <trkpt lat="48.05132" lon="7.02031">
        <ele>1206.140625</ele>
        <time>2012-01-21T10:08:33Z</time>
      </trkpt>
      <trkpt lat="48.0513" lon="7.02027">
        <ele>1205.40234375</ele>
        <time>2012-01-21T10:08:56Z</time>
      </trkpt>
      <trkpt lat="48.05128" lon="7.02025">
        <ele>1204.16015625</ele>
        <time>2012-01-21T10:09:05Z</time>
      </trkpt>
      <trkpt lat="48.05128" lon="7.02025">
        <ele>1204.16015625</ele>
        <time>2012-01-21T10:09:07Z</time>
      </trkpt>
      <trkpt lat="48.05126" lon="7.02022">
        <ele>1203</ele>
        <time>2012-01-21T10:09:10Z</time>
      </trkpt>
      <trkpt lat="48.05119" lon="7.02002">
        <ele>1197.58203125</ele>
        <time>2012-01-21T10:09:20Z</time>
      </trkpt>
      <trkpt lat="48.05113" lon="7.01982">
        <ele>1193.6484375</ele>
        <time>2012-01-21T10:09:31Z</time>
      </trkpt>
      <trkpt lat="48.05113" lon="7.01971">
        <ele>1193.92578125</ele>
        <time>2012-01-21T10:09:41Z</time>
      </trkpt>
      <trkpt lat="48.05113" lon="7.01969">
        <ele>1194.17578125</ele>
        <time>2012-01-21T10:09:47Z</time>
      </trkpt>
      <trkpt lat="48.05116" lon="7.01954">
        <ele>1196.44921875</ele>
        <time>2012-01-21T10:09:57Z</time>
      </trkpt>
      <trkpt lat="48.05118" lon="7.01938">
        <ele>1197.6015625</ele>
        <time>2012-01-21T10:10:07Z</time>
      </trkpt>
      <trkpt lat="48.05119" lon="7.01928">
        <ele>1198.59375</ele>
        <time>2012-01-21T10:10:13Z</time>
      </trkpt>
      <trkpt lat="48.0512" lon="7.01922">
        <ele>1199.140625</ele>
        <time>2012-01-21T10:10:19Z</time>
      </trkpt>
      <trkpt lat="48.05123" lon="7.01909">
        <ele>1201.08203125</ele>
        <time>2012-01-21T10:10:31Z</time>
      </trkpt>
      <trkpt lat="48.05122" lon="7.01906">
        <ele>1200.94921875</ele>
        <time>2012-01-21T10:10:38Z</time>
      </trkpt>
      <trkpt lat="48.05124" lon="7.01893">
        <ele>1204.1015625</ele>
        <time>2012-01-21T10:10:48Z</time>
      </trkpt>
      <trkpt lat="48.05127" lon="7.01883">
        <ele>1207.36328125</ele>
        <time>2012-01-21T10:10:58Z</time>
      </trkpt>
      <trkpt lat="48.05127" lon="7.0188">
        <ele>1207.84375</ele>
        <time>2012-01-21T10:11:01Z</time>
      </trkpt>
      <trkpt lat="48.05127" lon="7.01877">
        <ele>1208.2109375</ele>
        <time>2012-01-21T10:11:04Z</time>
      </trkpt>
      <trkpt lat="48.05125" lon="7.01863">
        <ele>1209.5859375</ele>
        <time>2012-01-21T10:11:12Z</time>
      </trkpt>
      <trkpt lat="48.05121" lon="7.01856">
        <ele>1209.7734375</ele>
        <time>2012-01-21T10:11:17Z</time>
      </trkpt>
      <trkpt lat="48.05118" lon="7.01849">
        <ele>1209.58203125</ele>
        <time>2012-01-21T10:11:27Z</time>
      </trkpt>
      <trkpt lat="48.05116" lon="7.01848">
        <ele>1209.47265625</ele>
        <time>2012-01-21T10:11:30Z</time>
      </trkpt>
      <trkpt lat="48.05114" lon="7.0184">
        <ele>1210.515625</ele>
        <time>2012-01-21T10:11:45Z</time>
      </trkpt>
      <trkpt lat="48.05108" lon="7.01824">
        <ele>1212.05078125</ele>
        <time>2012-01-21T10:11:57Z</time>
      </trkpt>
      <trkpt lat="48.05103" lon="7.01818">
        <ele>1212.18359375</ele>
        <time>2012-01-21T10:12:04Z</time>
      </trkpt>
      <trkpt lat="48.05097" lon="7.01807">
        <ele>1213.75390625</ele>
        <time>2012-01-21T10:12:15Z</time>
      </trkpt>
      <trkpt lat="48.05097" lon="7.01806">
        <ele>1213.88671875</ele>
        <time>2012-01-21T10:12:16Z</time>
      </trkpt>
      <trkpt lat="48.05095" lon="7.01803">
        <ele>1214.390625</ele>
        <time>2012-01-21T10:12:19Z</time>
      </trkpt>
      <trkpt lat="48.05087" lon="7.01797">
        <ele>1214.578125</ele>
        <time>2012-01-21T10:12:30Z</time>
      </trkpt>
      <trkpt lat="48.05082" lon="7.01793">
        <ele>1215.1015625</ele>
        <time>2012-01-21T10:12:39Z</time>
      </trkpt>
      <trkpt lat="48.05075" lon="7.01785">
        <ele>1216.390625</ele>
        <time>2012-01-21T10:12:51Z</time>
      </trkpt>
      <trkpt lat="48.05068" lon="7.0178">
        <ele>1216.375</ele>
        <time>2012-01-21T10:13:03Z</time>
      </trkpt>
      <trkpt lat="48.05064" lon="7.01778">
        <ele>1215.71484375</ele>
        <time>2012-01-21T10:13:13Z</time>
      </trkpt>
      <trkpt lat="48.05054" lon="7.01771">
        <ele>1215.453125</ele>
        <time>2012-01-21T10:13:25Z</time>
      </trkpt>
      <trkpt lat="48.05043" lon="7.01766">
        <ele>1215.01171875</ele>
        <time>2012-01-21T10:13:37Z</time>
      </trkpt>
      <trkpt lat="48.05033" lon="7.01761">
        <ele>1215.0390625</ele>
        <time>2012-01-21T10:13:51Z</time>
      </trkpt>
      <trkpt lat="48.05032" lon="7.01761">
        <ele>1214.8203125</ele>
        <time>2012-01-21T10:13:52Z</time>
      </trkpt>
      <trkpt lat="48.05024" lon="7.01756">
        <ele>1215.43359375</ele>
        <time>2012-01-21T10:14:03Z</time>
      </trkpt>
      <trkpt lat="48.0502" lon="7.01754">
        <ele>1215.46875</ele>
        <time>2012-01-21T10:14:08Z</time>
      </trkpt>
      <trkpt lat="48.05012" lon="7.01745">
        <ele>1219.015625</ele>
        <time>2012-01-21T10:14:19Z</time>
      </trkpt>
      <trkpt lat="48.05002" lon="7.01738">
        <ele>1221.39453125</ele>
        <time>2012-01-21T10:14:31Z</time>
      </trkpt>
      <trkpt lat="48.05002" lon="7.01738">
        <ele>1221.39453125</ele>
        <time>2012-01-21T10:14:32Z</time>
      </trkpt>
      <trkpt lat="48.04996" lon="7.01732">
        <ele>1222.27734375</ele>
        <time>2012-01-21T10:14:43Z</time>
      </trkpt>
      <trkpt lat="48.0499" lon="7.01729">
        <ele>1222.375</ele>
        <time>2012-01-21T10:14:53Z</time>
      </trkpt>
      <trkpt lat="48.04984" lon="7.01722">
        <ele>1221.07421875</ele>
        <time>2012-01-21T10:15:00Z</time>
      </trkpt>
      <trkpt lat="48.04978" lon="7.01714">
        <ele>1219.765625</ele>
        <time>2012-01-21T10:15:11Z</time>
      </trkpt>
      <trkpt lat="48.04974" lon="7.01702">
        <ele>1222.15625</ele>
        <time>2012-01-21T10:15:22Z</time>
      </trkpt>
      <trkpt lat="48.04967" lon="7.01685">
        <ele>1224.6640625</ele>
        <time>2012-01-21T10:15:34Z</time>
      </trkpt>
      <trkpt lat="48.04961" lon="7.01674">
        <ele>1226.69140625</ele>
        <time>2012-01-21T10:15:45Z</time>
      </trkpt>
      <trkpt lat="48.04958" lon="7.01669">
        <ele>1227.67578125</ele>
        <time>2012-01-21T10:15:51Z</time>
      </trkpt>
      <trkpt lat="48.04951" lon="7.01659">
        <ele>1229.46875</ele>
        <time>2012-01-21T10:16:05Z</time>
      </trkpt>
      <trkpt lat="48.04948" lon="7.01655">
        <ele>1230.1796875</ele>
        <time>2012-01-21T10:16:10Z</time>
      </trkpt>
      <trkpt lat="48.04944" lon="7.01651">
        <ele>1230.015625</ele>
        <time>2012-01-21T10:16:16Z</time>
      </trkpt>
      <trkpt lat="48.04938" lon="7.01648">
        <ele>1229.07421875</ele>
        <time>2012-01-21T10:16:28Z</time>
      </trkpt>
      <trkpt lat="48.04929" lon="7.01642">
        <ele>1227.859375</ele>
        <time>2012-01-21T10:16:38Z</time>
      </trkpt>
      <trkpt lat="48.04922" lon="7.01634">
        <ele>1228.72265625</ele>
        <time>2012-01-21T10:16:48Z</time>
      </trkpt>
      <trkpt lat="48.04915" lon="7.0163">
        <ele>1228.515625</ele>
        <time>2012-01-21T10:17:00Z</time>
      </trkpt>
      <trkpt lat="48.04908" lon="7.01623">
        <ele>1229.75390625</ele>
        <time>2012-01-21T10:17:12Z</time>
      </trkpt>
      <trkpt lat="48.04897" lon="7.01622">
        <ele>1228.1640625</ele>
        <time>2012-01-21T10:17:24Z</time>
      </trkpt>
      <trkpt lat="48.04891" lon="7.01619">
        <ele>1228.140625</ele>
        <time>2012-01-21T10:17:49Z</time>
      </trkpt>
      <trkpt lat="48.04891" lon="7.01619">
        <ele>1228.140625</ele>
        <time>2012-01-21T10:17:51Z</time>
      </trkpt>
      <trkpt lat="48.04887" lon="7.01617">
        <ele>1228.2734375</ele>
        <time>2012-01-21T10:18:08Z</time>
      </trkpt>
      <trkpt lat="48.04887" lon="7.01616">
        <ele>1228.32421875</ele>
        <time>2012-01-21T10:18:45Z</time>
      </trkpt>
      <trkpt lat="48.04885" lon="7.0161">
        <ele>1231.375</ele>
        <time>2012-01-21T10:18:49Z</time>
      </trkpt>
      <trkpt lat="48.04879" lon="7.01603">
        <ele>1233.79296875</ele>
        <time>2012-01-21T10:19:02Z</time>
      </trkpt>
      <trkpt lat="48.04873" lon="7.01593">
        <ele>1238.734375</ele>
        <time>2012-01-21T10:19:21Z</time>
      </trkpt>
      <trkpt lat="48.04873" lon="7.01593">
        <ele>1238.734375</ele>
        <time>2012-01-21T10:19:23Z</time>
      </trkpt>
      <trkpt lat="48.04871" lon="7.0159">
        <ele>1240.12109375</ele>
        <time>2012-01-21T10:19:30Z</time>
      </trkpt>
      <trkpt lat="48.04865" lon="7.01585">
        <ele>1242.38671875</ele>
        <time>2012-01-21T10:19:39Z</time>
      </trkpt>
      <trkpt lat="48.04857" lon="7.01574">
        <ele>1248.84765625</ele>
        <time>2012-01-21T10:19:52Z</time>
      </trkpt>
      <trkpt lat="48.04855" lon="7.01572">
        <ele>1249.58203125</ele>
        <time>2012-01-21T10:20:07Z</time>
      </trkpt>
      <trkpt lat="48.04849" lon="7.0157">
        <ele>1249.6328125</ele>
        <time>2012-01-21T10:20:50Z</time>
      </trkpt>
      <trkpt lat="48.04843" lon="7.01565">
        <ele>1250.28125</ele>
        <time>2012-01-21T10:21:02Z</time>
      </trkpt>
      <trkpt lat="48.04842" lon="7.01556">
        <ele>1251.69140625</ele>
        <time>2012-01-21T10:21:13Z</time>
      </trkpt>
      <trkpt lat="48.04836" lon="7.01546">
        <ele>1253.34375</ele>
        <time>2012-01-21T10:21:24Z</time>
      </trkpt>
      <trkpt lat="48.04835" lon="7.01544">
        <ele>1253.6484375</ele>
        <time>2012-01-21T10:21:26Z</time>
      </trkpt>
      <trkpt lat="48.04836" lon="7.01542">
        <ele>1254.0546875</ele>
        <time>2012-01-21T10:21:28Z</time>
      </trkpt>
      <trkpt lat="48.04835" lon="7.01537">
        <ele>1254.953125</ele>
        <time>2012-01-21T10:21:38Z</time>
      </trkpt>
      <trkpt lat="48.04835" lon="7.01537">
        <ele>1254.953125</ele>
        <time>2012-01-21T10:22:00Z</time>
      </trkpt>
      <trkpt lat="48.04835" lon="7.01537">
        <ele>1254.953125</ele>
        <time>2012-01-21T10:22:12Z</time>
      </trkpt>
      <trkpt lat="48.04835" lon="7.01537">
        <ele>1255.046875</ele>
        <time>2012-01-21T10:22:37Z</time>
      </trkpt>
      <trkpt lat="48.04835" lon="7.01537">
        <ele>1255.046875</ele>
        <time>2012-01-21T10:22:41Z</time>
      </trkpt>
      <trkpt lat="48.04835" lon="7.01537">
        <ele>1255.046875</ele>
        <time>2012-01-21T10:22:42Z</time>
      </trkpt>
      <trkpt lat="48.04835" lon="7.01537">
        <ele>1255.046875</ele>
        <time>2012-01-21T10:22:44Z</time>
      </trkpt>
      <trkpt lat="48.04835" lon="7.01537">
        <ele>1255.046875</ele>
        <time>2012-01-21T10:22:50Z</time>
      </trkpt>
      <trkpt lat="48.04834" lon="7.01535">
        <ele>1255.38671875</ele>
        <time>2012-01-21T10:23:23Z</time>
      </trkpt>
      <trkpt lat="48.04834" lon="7.01535">
        <ele>1255.38671875</ele>
        <time>2012-01-21T10:23:35Z</time>
      </trkpt>
      <trkpt lat="48.04834" lon="7.01534">
        <ele>1255.48828125</ele>
        <time>2012-01-21T10:24:04Z</time>
      </trkpt>
      <trkpt lat="48.04834" lon="7.01534">
        <ele>1255.546875</ele>
        <time>2012-01-21T10:24:37Z</time>
      </trkpt>
      <trkpt lat="48.04834" lon="7.01534">
        <ele>1255.546875</ele>
        <time>2012-01-21T10:24:48Z</time>
      </trkpt>
      <trkpt lat="48.04834" lon="7.01534">
        <ele>1255.546875</ele>
        <time>2012-01-21T10:24:55Z</time>
      </trkpt>
      <trkpt lat="48.0483" lon="7.01528">
        <ele>1256.76953125</ele>
        <time>2012-01-21T10:25:32Z</time>
      </trkpt>
      <trkpt lat="48.04824" lon="7.01519">
        <ele>1258.8046875</ele>
        <time>2012-01-21T10:25:45Z</time>
      </trkpt>
      <trkpt lat="48.04816" lon="7.0152">
        <ele>1259.04296875</ele>
        <time>2012-01-21T10:25:57Z</time>
      </trkpt>
      <trkpt lat="48.04803" lon="7.01518">
        <ele>1259.79296875</ele>
        <time>2012-01-21T10:26:14Z</time>
      </trkpt>
      <trkpt lat="48.04798" lon="7.01524">
        <ele>1258.96484375</ele>
        <time>2012-01-21T10:26:21Z</time>
      </trkpt>
      <trkpt lat="48.0479" lon="7.01524">
        <ele>1259.23046875</ele>
        <time>2012-01-21T10:26:33Z</time>
      </trkpt>
      <trkpt lat="48.04781" lon="7.01523">
        <ele>1259.75</ele>
        <time>2012-01-21T10:26:46Z</time>
      </trkpt>
      <trkpt lat="48.0478" lon="7.01522">
        <ele>1260.125</ele>
        <time>2012-01-21T10:26:52Z</time>
      </trkpt>
      <trkpt lat="48.04774" lon="7.0151">
        <ele>1262.28125</ele>
        <time>2012-01-21T10:27:08Z</time>
      </trkpt>
      <trkpt lat="48.04775" lon="7.01504">
        <ele>1263.15234375</ele>
        <time>2012-01-21T10:27:13Z</time>
      </trkpt>
      <trkpt lat="48.04775" lon="7.01503">
        <ele>1263.390625</ele>
        <time>2012-01-21T10:27:14Z</time>
      </trkpt>
      <trkpt lat="48.04776" lon="7.01498">
        <ele>1264.109375</ele>
        <time>2012-01-21T10:27:17Z</time>
      </trkpt>
      <trkpt lat="48.0478" lon="7.01477">
        <ele>1265.97265625</ele>
        <time>2012-01-21T10:27:31Z</time>
      </trkpt>
      <trkpt lat="48.04784" lon="7.0146">
        <ele>1266.46875</ele>
        <time>2012-01-21T10:27:41Z</time>
      </trkpt>
      <trkpt lat="48.0479" lon="7.0144">
        <ele>1266.91796875</ele>
        <time>2012-01-21T10:27:54Z</time>
      </trkpt>
      <trkpt lat="48.04791" lon="7.01433">
        <ele>1267.06640625</ele>
        <time>2012-01-21T10:27:58Z</time>
      </trkpt>
      <trkpt lat="48.04793" lon="7.01429">
        <ele>1267.09375</ele>
        <time>2012-01-21T10:28:02Z</time>
      </trkpt>
      <trkpt lat="48.04793" lon="7.01428">
        <ele>1267.109375</ele>
        <time>2012-01-21T10:28:03Z</time>
      </trkpt>
      <trkpt lat="48.04796" lon="7.0142">
        <ele>1267.20703125</ele>
        <time>2012-01-21T10:28:09Z</time>
      </trkpt>
      <trkpt lat="48.04796" lon="7.01419">
        <ele>1267.2109375</ele>
        <time>2012-01-21T10:28:10Z</time>
      </trkpt>
      <trkpt lat="48.04797" lon="7.01418">
        <ele>1267.2109375</ele>
        <time>2012-01-21T10:28:11Z</time>
      </trkpt>
      <trkpt lat="48.04797" lon="7.01417">
        <ele>1267.21484375</ele>
        <time>2012-01-21T10:28:12Z</time>
      </trkpt>
      <trkpt lat="48.04805" lon="7.01406">
        <ele>1267.05859375</ele>
        <time>2012-01-21T10:28:23Z</time>
      </trkpt>
      <trkpt lat="48.04805" lon="7.01406">
        <ele>1267.046875</ele>
        <time>2012-01-21T10:28:24Z</time>
      </trkpt>
      <trkpt lat="48.04808" lon="7.01401">
        <ele>1266.9453125</ele>
        <time>2012-01-21T10:28:29Z</time>
      </trkpt>
      <trkpt lat="48.04815" lon="7.01401">
        <ele>1266.5390625</ele>
        <time>2012-01-21T10:28:37Z</time>
      </trkpt>
      <trkpt lat="48.04817" lon="7.01404">
        <ele>1266.38671875</ele>
        <time>2012-01-21T10:28:40Z</time>
      </trkpt>
      <trkpt lat="48.0482" lon="7.01407">
        <ele>1266.10546875</ele>
        <time>2012-01-21T10:28:45Z</time>
      </trkpt>
      <trkpt lat="48.04826" lon="7.01416">
        <ele>1265.5078125</ele>
        <time>2012-01-21T10:28:52Z</time>
      </trkpt>
      <trkpt lat="48.04832" lon="7.01422">
        <ele>1264.6640625</ele>
        <time>2012-01-21T10:29:05Z</time>
      </trkpt>
      <trkpt lat="48.04834" lon="7.01422">
        <ele>1264.3828125</ele>
        <time>2012-01-21T10:29:08Z</time>
      </trkpt>
      <trkpt lat="48.04835" lon="7.01422">
        <ele>1264.3046875</ele>
        <time>2012-01-21T10:29:09Z</time>
      </trkpt>
      <trkpt lat="48.04837" lon="7.01421">
        <ele>1264.0703125</ele>
        <time>2012-01-21T10:29:16Z</time>
      </trkpt>
      <trkpt lat="48.04838" lon="7.01421">
        <ele>1264.00390625</ele>
        <time>2012-01-21T10:29:25Z</time>
      </trkpt>
      <trkpt lat="48.04842" lon="7.0142">
        <ele>1263.48046875</ele>
        <time>2012-01-21T10:29:41Z</time>
      </trkpt>
      <trkpt lat="48.04846" lon="7.01422">
        <ele>1262.921875</ele>
        <time>2012-01-21T10:29:55Z</time>
      </trkpt>
      <trkpt lat="48.04849" lon="7.01425">
        <ele>1262.62109375</ele>
        <time>2012-01-21T10:30:05Z</time>
      </trkpt>
      <trkpt lat="48.04853" lon="7.01431">
        <ele>1262.09375</ele>
        <time>2012-01-21T10:30:13Z</time>
      </trkpt>
      <trkpt lat="48.04854" lon="7.01433">
        <ele>1261.87109375</ele>
        <time>2012-01-21T10:30:15Z</time>
      </trkpt>
      <trkpt lat="48.04858" lon="7.01436">
        <ele>1261.3671875</ele>
        <time>2012-01-21T10:30:18Z</time>
      </trkpt>
      <trkpt lat="48.04867" lon="7.01437">
        <ele>1260.26171875</ele>
        <time>2012-01-21T10:30:27Z</time>
      </trkpt>
      <trkpt lat="48.04876" lon="7.01439">
        <ele>1259.109375</ele>
        <time>2012-01-21T10:30:36Z</time>
      </trkpt>
      <trkpt lat="48.04878" lon="7.0144">
        <ele>1258.88671875</ele>
        <time>2012-01-21T10:30:53Z</time>
      </trkpt>
      <trkpt lat="48.04883" lon="7.0144">
        <ele>1258.36328125</ele>
        <time>2012-01-21T10:32:21Z</time>
      </trkpt>
      <trkpt lat="48.04885" lon="7.01439">
        <ele>1258.11328125</ele>
        <time>2012-01-21T10:32:26Z</time>
      </trkpt>
      <trkpt lat="48.04889" lon="7.01441">
        <ele>1257.578125</ele>
        <time>2012-01-21T10:32:39Z</time>
      </trkpt>
      <trkpt lat="48.04896" lon="7.01441">
        <ele>1256.78125</ele>
        <time>2012-01-21T10:32:56Z</time>
      </trkpt>
      <trkpt lat="48.04902" lon="7.01445">
        <ele>1255.9765625</ele>
        <time>2012-01-21T10:33:07Z</time>
      </trkpt>
      <trkpt lat="48.04908" lon="7.01444">
        <ele>1255.33203125</ele>
        <time>2012-01-21T10:33:11Z</time>
      </trkpt>
      <trkpt lat="48.04928" lon="7.01437">
        <ele>1253.171875</ele>
        <time>2012-01-21T10:33:22Z</time>
      </trkpt>
      <trkpt lat="48.04931" lon="7.01435">
        <ele>1252.93359375</ele>
        <time>2012-01-21T10:33:25Z</time>
      </trkpt>
      <trkpt lat="48.04939" lon="7.01423">
        <ele>1252.17578125</ele>
        <time>2012-01-21T10:33:37Z</time>
      </trkpt>
      <trkpt lat="48.0494" lon="7.01422">
        <ele>1252.08203125</ele>
        <time>2012-01-21T10:33:39Z</time>
      </trkpt>
      <trkpt lat="48.04945" lon="7.01417">
        <ele>1251.5703125</ele>
        <time>2012-01-21T10:33:45Z</time>
      </trkpt>
      <trkpt lat="48.04953" lon="7.0141">
        <ele>1250.81640625</ele>
        <time>2012-01-21T10:33:55Z</time>
      </trkpt>
      <trkpt lat="48.04958" lon="7.01404">
        <ele>1250.42578125</ele>
        <time>2012-01-21T10:34:06Z</time>
      </trkpt>
      <trkpt lat="48.04962" lon="7.01394">
        <ele>1250.109375</ele>
        <time>2012-01-21T10:34:16Z</time>
      </trkpt>
      <trkpt lat="48.04964" lon="7.01389">
        <ele>1249.90234375</ele>
        <time>2012-01-21T10:34:20Z</time>
      </trkpt>
      <trkpt lat="48.04968" lon="7.01374">
        <ele>1249.7109375</ele>
        <time>2012-01-21T10:34:32Z</time>
      </trkpt>
      <trkpt lat="48.04969" lon="7.01371">
        <ele>1249.61328125</ele>
        <time>2012-01-21T10:34:37Z</time>
      </trkpt>
      <trkpt lat="48.04974" lon="7.01361">
        <ele>1249.14453125</ele>
        <time>2012-01-21T10:34:47Z</time>
      </trkpt>
      <trkpt lat="48.04978" lon="7.01356">
        <ele>1248.828125</ele>
        <time>2012-01-21T10:35:00Z</time>
      </trkpt>
      <trkpt lat="48.04987" lon="7.01346">
        <ele>1247.95703125</ele>
        <time>2012-01-21T10:35:12Z</time>
      </trkpt>
      <trkpt lat="48.04989" lon="7.01332">
        <ele>1247.91796875</ele>
        <time>2012-01-21T10:35:21Z</time>
      </trkpt>
      <trkpt lat="48.04994" lon="7.01319">
        <ele>1247.49609375</ele>
        <time>2012-01-21T10:35:36Z</time>
      </trkpt>
      <trkpt lat="48.04995" lon="7.01314">
        <ele>1247.35546875</ele>
        <time>2012-01-21T10:35:42Z</time>
      </trkpt>
      <trkpt lat="48.04996" lon="7.01298">
        <ele>1247.2578125</ele>
        <time>2012-01-21T10:35:53Z</time>
      </trkpt>
      <trkpt lat="48.04996" lon="7.01296">
        <ele>1247.2578125</ele>
        <time>2012-01-21T10:35:54Z</time>
      </trkpt>
      <trkpt lat="48.04998" lon="7.01282">
        <ele>1246.9765625</ele>
        <time>2012-01-21T10:36:05Z</time>
      </trkpt>
      <trkpt lat="48.04999" lon="7.01268">
        <ele>1246.93359375</ele>
        <time>2012-01-21T10:36:15Z</time>
      </trkpt>
      <trkpt lat="48.04998" lon="7.01265">
        <ele>1247.0078125</ele>
        <time>2012-01-21T10:36:17Z</time>
      </trkpt>
      <trkpt lat="48.04998" lon="7.01255">
        <ele>1247.05078125</ele>
        <time>2012-01-21T10:36:23Z</time>
      </trkpt>
      <trkpt lat="48.05" lon="7.01256">
        <ele>1246.78125</ele>
        <time>2012-01-21T10:36:28Z</time>
      </trkpt>
      <trkpt lat="48.05" lon="7.01237">
        <ele>1246.67578125</ele>
        <time>2012-01-21T10:36:38Z</time>
      </trkpt>
      <trkpt lat="48.05" lon="7.01234">
        <ele>1246.58203125</ele>
        <time>2012-01-21T10:36:41Z</time>
      </trkpt>
      <trkpt lat="48.04996" lon="7.01215">
        <ele>1246.39453125</ele>
        <time>2012-01-21T10:36:53Z</time>
      </trkpt>
      <trkpt lat="48.04991" lon="7.01199">
        <ele>1246.2890625</ele>
        <time>2012-01-21T10:37:05Z</time>
      </trkpt>
      <trkpt lat="48.04991" lon="7.01195">
        <ele>1246.171875</ele>
        <time>2012-01-21T10:37:07Z</time>
      </trkpt>
      <trkpt lat="48.04989" lon="7.01185">
        <ele>1246.046875</ele>
        <time>2012-01-21T10:37:13Z</time>
      </trkpt>
      <trkpt lat="48.04982" lon="7.01157">
        <ele>1245.75390625</ele>
        <time>2012-01-21T10:37:27Z</time>
      </trkpt>
      <trkpt lat="48.04979" lon="7.01146">
        <ele>1245.23828125</ele>
        <time>2012-01-21T10:37:34Z</time>
      </trkpt>
      <trkpt lat="48.04979" lon="7.01134">
        <ele>1244.2890625</ele>
        <time>2012-01-21T10:37:43Z</time>
      </trkpt>
      <trkpt lat="48.04977" lon="7.01119">
        <ele>1243.45703125</ele>
        <time>2012-01-21T10:37:54Z</time>
      </trkpt>
      <trkpt lat="48.04977" lon="7.01115">
        <ele>1243.12890625</ele>
        <time>2012-01-21T10:38:02Z</time>
      </trkpt>
      <trkpt lat="48.04973" lon="7.01102">
        <ele>1242.515625</ele>
        <time>2012-01-21T10:38:09Z</time>
      </trkpt>
      <trkpt lat="48.04973" lon="7.01095">
        <ele>1241.98828125</ele>
        <time>2012-01-21T10:38:12Z</time>
      </trkpt>
      <trkpt lat="48.04968" lon="7.01079">
        <ele>1241.2109375</ele>
        <time>2012-01-21T10:38:24Z</time>
      </trkpt>
      <trkpt lat="48.04964" lon="7.01063">
        <ele>1239.73828125</ele>
        <time>2012-01-21T10:38:34Z</time>
      </trkpt>
      <trkpt lat="48.04963" lon="7.01058">
        <ele>1239.25</ele>
        <time>2012-01-21T10:38:38Z</time>
      </trkpt>
      <trkpt lat="48.0496" lon="7.01046">
        <ele>1237.91796875</ele>
        <time>2012-01-21T10:38:49Z</time>
      </trkpt>
      <trkpt lat="48.04959" lon="7.01045">
        <ele>1237.8515625</ele>
        <time>2012-01-21T10:38:50Z</time>
      </trkpt>
      <trkpt lat="48.04958" lon="7.01039">
        <ele>1237.16796875</ele>
        <time>2012-01-21T10:38:56Z</time>
      </trkpt>
      <trkpt lat="48.04955" lon="7.01025">
        <ele>1235.69921875</ele>
        <time>2012-01-21T10:39:07Z</time>
      </trkpt>
      <trkpt lat="48.04953" lon="7.01021">
        <ele>1235.30859375</ele>
        <time>2012-01-21T10:39:12Z</time>
      </trkpt>
      <trkpt lat="48.04952" lon="7.01016">
        <ele>1234.875</ele>
        <time>2012-01-21T10:39:18Z</time>
      </trkpt>
      <trkpt lat="48.04952" lon="7.01009">
        <ele>1233.984375</ele>
        <time>2012-01-21T10:39:30Z</time>
      </trkpt>
      <trkpt lat="48.04952" lon="7.01009">
        <ele>1233.984375</ele>
        <time>2012-01-21T10:39:31Z</time>
      </trkpt>
      <trkpt lat="48.04954" lon="7.01001">
        <ele>1232.73828125</ele>
        <time>2012-01-21T10:39:44Z</time>
      </trkpt>
      <trkpt lat="48.04954" lon="7.00999">
        <ele>1232.51953125</ele>
        <time>2012-01-21T10:40:10Z</time>
      </trkpt>
      <trkpt lat="48.04954" lon="7.00997">
        <ele>1232.25</ele>
        <time>2012-01-21T10:40:16Z</time>
      </trkpt>
      <trkpt lat="48.04954" lon="7.00994">
        <ele>1231.796875</ele>
        <time>2012-01-21T10:40:18Z</time>
      </trkpt>
      <trkpt lat="48.04955" lon="7.00984">
        <ele>1230.14453125</ele>
        <time>2012-01-21T10:40:25Z</time>
      </trkpt>
      <trkpt lat="48.04958" lon="7.00985">
        <ele>1229.921875</ele>
        <time>2012-01-21T10:40:34Z</time>
      </trkpt>
      <trkpt lat="48.04965" lon="7.00982">
        <ele>1228.4921875</ele>
        <time>2012-01-21T10:40:48Z</time>
      </trkpt>
      <trkpt lat="48.04968" lon="7.0098">
        <ele>1227.765625</ele>
        <time>2012-01-21T10:40:53Z</time>
      </trkpt>
      <trkpt lat="48.0497" lon="7.00979">
        <ele>1227.5234375</ele>
        <time>2012-01-21T10:40:55Z</time>
      </trkpt>
      <trkpt lat="48.04974" lon="7.00978">
        <ele>1226.75</ele>
        <time>2012-01-21T10:41:13Z</time>
      </trkpt>
      <trkpt lat="48.04977" lon="7.00971">
        <ele>1225.31640625</ele>
        <time>2012-01-21T10:41:19Z</time>
      </trkpt>
      <trkpt lat="48.04977" lon="7.00971">
        <ele>1225.31640625</ele>
        <time>2012-01-21T10:41:22Z</time>
      </trkpt>
      <trkpt lat="48.04977" lon="7.0097">
        <ele>1225.046875</ele>
        <time>2012-01-21T10:41:23Z</time>
      </trkpt>
      <trkpt lat="48.04979" lon="7.00963">
        <ele>1223.54296875</ele>
        <time>2012-01-21T10:41:30Z</time>
      </trkpt>
      <trkpt lat="48.04979" lon="7.00963">
        <ele>1223.54296875</ele>
        <time>2012-01-21T10:41:31Z</time>
      </trkpt>
      <trkpt lat="48.0498" lon="7.00962">
        <ele>1223.26953125</ele>
        <time>2012-01-21T10:41:32Z</time>
      </trkpt>
      <trkpt lat="48.0498" lon="7.00961">
        <ele>1222.92578125</ele>
        <time>2012-01-21T10:41:34Z</time>
      </trkpt>
      <trkpt lat="48.04982" lon="7.00954">
        <ele>1221.4921875</ele>
        <time>2012-01-21T10:41:42Z</time>
      </trkpt>
      <trkpt lat="48.04984" lon="7.00947">
        <ele>1220.01171875</ele>
        <time>2012-01-21T10:41:53Z</time>
      </trkpt>
      <trkpt lat="48.04984" lon="7.00937">
        <ele>1218.19140625</ele>
        <time>2012-01-21T10:42:01Z</time>
      </trkpt>
      <trkpt lat="48.04982" lon="7.00919">
        <ele>1215.25390625</ele>
        <time>2012-01-21T10:42:11Z</time>
      </trkpt>
      <trkpt lat="48.04982" lon="7.0091">
        <ele>1213.6875</ele>
        <time>2012-01-21T10:42:15Z</time>
      </trkpt>
      <trkpt lat="48.04983" lon="7.00903">
        <ele>1212.1953125</ele>
        <time>2012-01-21T10:42:20Z</time>
      </trkpt>
      <trkpt lat="48.04988" lon="7.00892">
        <ele>1208.97265625</ele>
        <time>2012-01-21T10:42:29Z</time>
      </trkpt>
      <trkpt lat="48.04992" lon="7.00891">
        <ele>1208.37109375</ele>
        <time>2012-01-21T10:42:37Z</time>
      </trkpt>
      <trkpt lat="48.04993" lon="7.00891">
        <ele>1208.140625</ele>
        <time>2012-01-21T10:42:41Z</time>
      </trkpt>
      <trkpt lat="48.04997" lon="7.00885">
        <ele>1206.30078125</ele>
        <time>2012-01-21T10:42:51Z</time>
      </trkpt>
      <trkpt lat="48.04997" lon="7.00884">
        <ele>1205.98046875</ele>
        <time>2012-01-21T10:42:52Z</time>
      </trkpt>
      <trkpt lat="48.04998" lon="7.00872">
        <ele>1203.44140625</ele>
        <time>2012-01-21T10:42:56Z</time>
      </trkpt>
      <trkpt lat="48.05007" lon="7.00858">
        <ele>1199.22265625</ele>
        <time>2012-01-21T10:43:04Z</time>
      </trkpt>
      <trkpt lat="48.05015" lon="7.00845">
        <ele>1195.3125</ele>
        <time>2012-01-21T10:43:13Z</time>
      </trkpt>
      <trkpt lat="48.05018" lon="7.00844">
        <ele>1194.83203125</ele>
        <time>2012-01-21T10:43:26Z</time>
      </trkpt>
      <trkpt lat="48.05028" lon="7.00841">
        <ele>1192.75390625</ele>
        <time>2012-01-21T10:43:46Z</time>
      </trkpt>
      <trkpt lat="48.05038" lon="7.00839">
        <ele>1191.0703125</ele>
        <time>2012-01-21T10:43:58Z</time>
      </trkpt>
      <trkpt lat="48.0504" lon="7.00841">
        <ele>1191.125</ele>
        <time>2012-01-21T10:44:00Z</time>
      </trkpt>
      <trkpt lat="48.05052" lon="7.00842">
        <ele>1189.74609375</ele>
        <time>2012-01-21T10:44:07Z</time>
      </trkpt>
      <trkpt lat="48.05069" lon="7.00843">
        <ele>1187.8359375</ele>
        <time>2012-01-21T10:44:21Z</time>
      </trkpt>
      <trkpt lat="48.05077" lon="7.00843">
        <ele>1186.96484375</ele>
        <time>2012-01-21T10:44:27Z</time>
      </trkpt>
      <trkpt lat="48.05077" lon="7.00843">
        <ele>1186.96484375</ele>
        <time>2012-01-21T10:44:42Z</time>
      </trkpt>
      <trkpt lat="48.05078" lon="7.00843">
        <ele>1187.0078125</ele>
        <time>2012-01-21T10:45:32Z</time>
      </trkpt>
      <trkpt lat="48.05084" lon="7.00847">
        <ele>1187.51171875</ele>
        <time>2012-01-21T10:46:23Z</time>
      </trkpt>
      <trkpt lat="48.05084" lon="7.00847">
        <ele>1187.51171875</ele>
        <time>2012-01-21T10:46:42Z</time>
      </trkpt>
      <trkpt lat="48.05084" lon="7.00847">
        <ele>1187.453125</ele>
        <time>2012-01-21T10:47:23Z</time>
      </trkpt>
      <trkpt lat="48.05084" lon="7.00847">
        <ele>1187.44921875</ele>
        <time>2012-01-21T10:47:59Z</time>
      </trkpt>
      <trkpt lat="48.05084" lon="7.00847">
        <ele>1187.44921875</ele>
        <time>2012-01-21T10:48:01Z</time>
      </trkpt>
      <trkpt lat="48.05084" lon="7.00847">
        <ele>1187.44921875</ele>
        <time>2012-01-21T10:48:06Z</time>
      </trkpt>
      <trkpt lat="48.05084" lon="7.00847">
        <ele>1187.44921875</ele>
        <time>2012-01-21T10:48:07Z</time>
      </trkpt>
      <trkpt lat="48.05084" lon="7.00847">
        <ele>1187.4765625</ele>
        <time>2012-01-21T10:48:15Z</time>
      </trkpt>
      <trkpt lat="48.05085" lon="7.00847">
        <ele>1187.32421875</ele>
        <time>2012-01-21T10:48:55Z</time>
      </trkpt>
      <trkpt lat="48.05085" lon="7.00847">
        <ele>1187.32421875</ele>
        <time>2012-01-21T10:49:19Z</time>
      </trkpt>
      <trkpt lat="48.05085" lon="7.00847">
        <ele>1187.33203125</ele>
        <time>2012-01-21T10:49:29Z</time>
      </trkpt>
      <trkpt lat="48.05085" lon="7.00847">
        <ele>1187.33203125</ele>
        <time>2012-01-21T10:49:43Z</time>
      </trkpt>
      <trkpt lat="48.05085" lon="7.00847">
        <ele>1187.33203125</ele>
        <time>2012-01-21T10:49:45Z</time>
      </trkpt>
      <trkpt lat="48.05085" lon="7.00847">
        <ele>1187.33203125</ele>
        <time>2012-01-21T10:49:49Z</time>
      </trkpt>
      <trkpt lat="48.05086" lon="7.00849">
        <ele>1187.73046875</ele>
        <time>2012-01-21T10:52:46Z</time>
      </trkpt>
      <trkpt lat="48.05086" lon="7.00849">
        <ele>1187.73046875</ele>
        <time>2012-01-21T10:52:51Z</time>
      </trkpt>
      <trkpt lat="48.05086" lon="7.00849">
        <ele>1187.73046875</ele>
        <time>2012-01-21T10:52:53Z</time>
      </trkpt>
      <trkpt lat="48.05086" lon="7.00849">
        <ele>1187.73046875</ele>
        <time>2012-01-21T10:52:55Z</time>
      </trkpt>
      <trkpt lat="48.05086" lon="7.0085">
        <ele>1187.86328125</ele>
        <time>2012-01-21T10:54:18Z</time>
      </trkpt>
      <trkpt lat="48.05086" lon="7.0085">
        <ele>1187.86328125</ele>
        <time>2012-01-21T10:54:28Z</time>
      </trkpt>
      <trkpt lat="48.05086" lon="7.00848">
        <ele>1187.53125</ele>
        <time>2012-01-21T10:55:37Z</time>
      </trkpt>
      <trkpt lat="48.05086" lon="7.00848">
        <ele>1187.53125</ele>
        <time>2012-01-21T10:55:56Z</time>
      </trkpt>
      <trkpt lat="48.05086" lon="7.00848">
        <ele>1187.5234375</ele>
        <time>2012-01-21T10:57:29Z</time>
      </trkpt>
      <trkpt lat="48.05086" lon="7.00848">
        <ele>1187.5234375</ele>
        <time>2012-01-21T10:57:53Z</time>
      </trkpt>
      <trkpt lat="48.05086" lon="7.00848">
        <ele>1187.5234375</ele>
        <time>2012-01-21T10:57:58Z</time>
      </trkpt>
      <trkpt lat="48.05086" lon="7.00847">
        <ele>1187.21484375</ele>
        <time>2012-01-21T10:58:17Z</time>
      </trkpt>
      <trkpt lat="48.05086" lon="7.00847">
        <ele>1187.21484375</ele>
        <time>2012-01-21T10:58:20Z</time>
      </trkpt>
      <trkpt lat="48.05087" lon="7.00847">
        <ele>1187.24609375</ele>
        <time>2012-01-21T10:58:59Z</time>
      </trkpt>
      <trkpt lat="48.05087" lon="7.00847">
        <ele>1187.24609375</ele>
        <time>2012-01-21T10:59:05Z</time>
      </trkpt>
      <trkpt lat="48.05087" lon="7.00847">
        <ele>1187.24609375</ele>
        <time>2012-01-21T10:59:11Z</time>
      </trkpt>
      <trkpt lat="48.05099" lon="7.00847">
        <ele>1186.37890625</ele>
        <time>2012-01-21T10:59:32Z</time>
      </trkpt>
      <trkpt lat="48.05099" lon="7.00848">
        <ele>1186.5625</ele>
        <time>2012-01-21T10:59:34Z</time>
      </trkpt>
      <trkpt lat="48.05104" lon="7.00849">
        <ele>1186.5625</ele>
        <time>2012-01-21T10:59:44Z</time>
      </trkpt>
      <trkpt lat="48.05111" lon="7.00859">
        <ele>1188.0234375</ele>
        <time>2012-01-21T11:00:02Z</time>
      </trkpt>
      <trkpt lat="48.05117" lon="7.0087">
        <ele>1189.80078125</ele>
        <time>2012-01-21T11:00:20Z</time>
      </trkpt>
      <trkpt lat="48.05126" lon="7.00877">
        <ele>1190.64453125</ele>
        <time>2012-01-21T11:00:41Z</time>
      </trkpt>
      <trkpt lat="48.05135" lon="7.00887">
        <ele>1191.80859375</ele>
        <time>2012-01-21T11:00:54Z</time>
      </trkpt>
      <trkpt lat="48.05144" lon="7.00903">
        <ele>1194.39453125</ele>
        <time>2012-01-21T11:01:15Z</time>
      </trkpt>
      <trkpt lat="48.05157" lon="7.00914">
        <ele>1195.203125</ele>
        <time>2012-01-21T11:01:30Z</time>
      </trkpt>
      <trkpt lat="48.05161" lon="7.0092">
        <ele>1195.82421875</ele>
        <time>2012-01-21T11:01:43Z</time>
      </trkpt>
      <trkpt lat="48.05162" lon="7.00923">
        <ele>1196.12890625</ele>
        <time>2012-01-21T11:01:49Z</time>
      </trkpt>
      <trkpt lat="48.05172" lon="7.00934">
        <ele>1197.1015625</ele>
        <time>2012-01-21T11:01:58Z</time>
      </trkpt>
      <trkpt lat="48.05174" lon="7.0094">
        <ele>1197.8125</ele>
        <time>2012-01-21T11:02:01Z</time>
      </trkpt>
      <trkpt lat="48.05175" lon="7.00941">
        <ele>1197.85546875</ele>
        <time>2012-01-21T11:02:02Z</time>
      </trkpt>
      <trkpt lat="48.05177" lon="7.00946">
        <ele>1198.54296875</ele>
        <time>2012-01-21T11:02:08Z</time>
      </trkpt>
      <trkpt lat="48.05178" lon="7.00948">
        <ele>1198.734375</ele>
        <time>2012-01-21T11:02:10Z</time>
      </trkpt>
      <trkpt lat="48.05181" lon="7.00952">
        <ele>1199.09375</ele>
        <time>2012-01-21T11:02:16Z</time>
      </trkpt>
      <trkpt lat="48.05182" lon="7.00955">
        <ele>1199.41796875</ele>
        <time>2012-01-21T11:02:18Z</time>
      </trkpt>
      <trkpt lat="48.05183" lon="7.00958">
        <ele>1199.9375</ele>
        <time>2012-01-21T11:02:21Z</time>
      </trkpt>
      <trkpt lat="48.05185" lon="7.00962">
        <ele>1200.40234375</ele>
        <time>2012-01-21T11:02:26Z</time>
      </trkpt>
      <trkpt lat="48.05185" lon="7.00966">
        <ele>1201</ele>
        <time>2012-01-21T11:02:30Z</time>
      </trkpt>
      <trkpt lat="48.05185" lon="7.00967">
        <ele>1201.15625</ele>
        <time>2012-01-21T11:02:31Z</time>
      </trkpt>
      <trkpt lat="48.05185" lon="7.00972">
        <ele>1201.94140625</ele>
        <time>2012-01-21T11:02:35Z</time>
      </trkpt>
      <trkpt lat="48.05186" lon="7.00974">
        <ele>1202.2890625</ele>
        <time>2012-01-21T11:02:37Z</time>
      </trkpt>
      <trkpt lat="48.05187" lon="7.00979">
        <ele>1202.890625</ele>
        <time>2012-01-21T11:02:42Z</time>
      </trkpt>
      <trkpt lat="48.05188" lon="7.00982">
        <ele>1203.203125</ele>
        <time>2012-01-21T11:02:45Z</time>
      </trkpt>
      <trkpt lat="48.05189" lon="7.00994">
        <ele>1204.92578125</ele>
        <time>2012-01-21T11:02:55Z</time>
      </trkpt>
      <trkpt lat="48.05189" lon="7.00995">
        <ele>1204.9765625</ele>
        <time>2012-01-21T11:02:57Z</time>
      </trkpt>
      <trkpt lat="48.0519" lon="7.00998">
        <ele>1205.21484375</ele>
        <time>2012-01-21T11:03:00Z</time>
      </trkpt>
      <trkpt lat="48.05191" lon="7.01">
        <ele>1205.375</ele>
        <time>2012-01-21T11:03:03Z</time>
      </trkpt>
      <trkpt lat="48.05191" lon="7.01004">
        <ele>1205.7890625</ele>
        <time>2012-01-21T11:03:06Z</time>
      </trkpt>
      <trkpt lat="48.05191" lon="7.01006">
        <ele>1205.9375</ele>
        <time>2012-01-21T11:03:08Z</time>
      </trkpt>
      <trkpt lat="48.05191" lon="7.01007">
        <ele>1206.0234375</ele>
        <time>2012-01-21T11:03:09Z</time>
      </trkpt>
      <trkpt lat="48.05192" lon="7.01019">
        <ele>1207.18359375</ele>
        <time>2012-01-21T11:03:21Z</time>
      </trkpt>
      <trkpt lat="48.05194" lon="7.01023">
        <ele>1207.4296875</ele>
        <time>2012-01-21T11:03:26Z</time>
      </trkpt>
      <trkpt lat="48.05199" lon="7.01029">
        <ele>1207.63671875</ele>
        <time>2012-01-21T11:03:44Z</time>
      </trkpt>
      <trkpt lat="48.05209" lon="7.01057">
        <ele>1209.47265625</ele>
        <time>2012-01-21T11:04:19Z</time>
      </trkpt>
      <trkpt lat="48.05207" lon="7.01062">
        <ele>1210.20703125</ele>
        <time>2012-01-21T11:04:33Z</time>
      </trkpt>
      <trkpt lat="48.05208" lon="7.01069">
        <ele>1210.921875</ele>
        <time>2012-01-21T11:04:51Z</time>
      </trkpt>
      <trkpt lat="48.05208" lon="7.0108">
        <ele>1211.78125</ele>
        <time>2012-01-21T11:05:14Z</time>
      </trkpt>
      <trkpt lat="48.05209" lon="7.01082">
        <ele>1211.86328125</ele>
        <time>2012-01-21T11:07:25Z</time>
      </trkpt>
      <trkpt lat="48.05213" lon="7.01089">
        <ele>1211.953125</ele>
        <time>2012-01-21T11:08:12Z</time>
      </trkpt>
      <trkpt lat="48.05213" lon="7.01093">
        <ele>1212.125</ele>
        <time>2012-01-21T11:08:16Z</time>
      </trkpt>
      <trkpt lat="48.05206" lon="7.01107">
        <ele>1213.953125</ele>
        <time>2012-01-21T11:08:24Z</time>
      </trkpt>
      <trkpt lat="48.05203" lon="7.01108">
        <ele>1214.390625</ele>
        <time>2012-01-21T11:08:29Z</time>
      </trkpt>
      <trkpt lat="48.05202" lon="7.01112">
        <ele>1214.76171875</ele>
        <time>2012-01-21T11:08:32Z</time>
      </trkpt>
      <trkpt lat="48.05201" lon="7.01115">
        <ele>1215.12109375</ele>
        <time>2012-01-21T11:08:34Z</time>
      </trkpt>
      <trkpt lat="48.05195" lon="7.0112">
        <ele>1216.1796875</ele>
        <time>2012-01-21T11:08:43Z</time>
      </trkpt>
      <trkpt lat="48.05189" lon="7.01127">
        <ele>1217.453125</ele>
        <time>2012-01-21T11:08:55Z</time>
      </trkpt>
      <trkpt lat="48.05188" lon="7.01133">
        <ele>1218.02734375</ele>
        <time>2012-01-21T11:09:02Z</time>
      </trkpt>
      <trkpt lat="48.05188" lon="7.01141">
        <ele>1218.60546875</ele>
        <time>2012-01-21T11:09:07Z</time>
      </trkpt>
      <trkpt lat="48.05187" lon="7.01152">
        <ele>1219.5625</ele>
        <time>2012-01-21T11:09:20Z</time>
      </trkpt>
      <trkpt lat="48.05189" lon="7.01161">
        <ele>1219.81640625</ele>
        <time>2012-01-21T11:09:30Z</time>
      </trkpt>
      <trkpt lat="48.05192" lon="7.01169">
        <ele>1219.85546875</ele>
        <time>2012-01-21T11:09:41Z</time>
      </trkpt>
      <trkpt lat="48.05192" lon="7.01169">
        <ele>1219.85546875</ele>
        <time>2012-01-21T11:09:42Z</time>
      </trkpt>
      <trkpt lat="48.05196" lon="7.01182">
        <ele>1219.88671875</ele>
        <time>2012-01-21T11:09:54Z</time>
      </trkpt>
      <trkpt lat="48.05198" lon="7.01191">
        <ele>1220.06640625</ele>
        <time>2012-01-21T11:09:58Z</time>
      </trkpt>
      <trkpt lat="48.05198" lon="7.01192">
        <ele>1220.078125</ele>
        <time>2012-01-21T11:09:59Z</time>
      </trkpt>
      <trkpt lat="48.05199" lon="7.012">
        <ele>1220.43359375</ele>
        <time>2012-01-21T11:10:02Z</time>
      </trkpt>
      <trkpt lat="48.05201" lon="7.01223">
        <ele>1221.16796875</ele>
        <time>2012-01-21T11:10:16Z</time>
      </trkpt>
      <trkpt lat="48.05203" lon="7.0123">
        <ele>1221.2734375</ele>
        <time>2012-01-21T11:10:20Z</time>
      </trkpt>
      <trkpt lat="48.05204" lon="7.01234">
        <ele>1221.2890625</ele>
        <time>2012-01-21T11:10:24Z</time>
      </trkpt>
      <trkpt lat="48.05207" lon="7.01239">
        <ele>1221.265625</ele>
        <time>2012-01-21T11:10:28Z</time>
      </trkpt>
      <trkpt lat="48.05208" lon="7.01242">
        <ele>1221.16015625</ele>
        <time>2012-01-21T11:10:30Z</time>
      </trkpt>
      <trkpt lat="48.05213" lon="7.01248">
        <ele>1220.74609375</ele>
        <time>2012-01-21T11:10:37Z</time>
      </trkpt>
      <trkpt lat="48.05225" lon="7.01259">
        <ele>1219.671875</ele>
        <time>2012-01-21T11:10:49Z</time>
      </trkpt>
      <trkpt lat="48.05226" lon="7.0126">
        <ele>1219.55859375</ele>
        <time>2012-01-21T11:10:50Z</time>
      </trkpt>
      <trkpt lat="48.05237" lon="7.01269">
        <ele>1218.71484375</ele>
        <time>2012-01-21T11:11:03Z</time>
      </trkpt>
      <trkpt lat="48.05236" lon="7.0127">
        <ele>1218.7890625</ele>
        <time>2012-01-21T11:12:00Z</time>
      </trkpt>
      <trkpt lat="48.05246" lon="7.01279">
        <ele>1218.04296875</ele>
        <time>2012-01-21T11:12:42Z</time>
      </trkpt>
      <trkpt lat="48.05254" lon="7.01292">
        <ele>1217.7421875</ele>
        <time>2012-01-21T11:12:55Z</time>
      </trkpt>
      <trkpt lat="48.05255" lon="7.01293">
        <ele>1217.69921875</ele>
        <time>2012-01-21T11:12:56Z</time>
      </trkpt>
      <trkpt lat="48.05256" lon="7.01295">
        <ele>1217.67578125</ele>
        <time>2012-01-21T11:12:58Z</time>
      </trkpt>
      <trkpt lat="48.05262" lon="7.01308">
        <ele>1217.69140625</ele>
        <time>2012-01-21T11:13:08Z</time>
      </trkpt>
      <trkpt lat="48.05266" lon="7.01312">
        <ele>1217.5546875</ele>
        <time>2012-01-21T11:13:14Z</time>
      </trkpt>
      <trkpt lat="48.05272" lon="7.01319">
        <ele>1217.20703125</ele>
        <time>2012-01-21T11:13:27Z</time>
      </trkpt>
      <trkpt lat="48.05272" lon="7.01319">
        <ele>1217.2265625</ele>
        <time>2012-01-21T11:13:32Z</time>
      </trkpt>
      <trkpt lat="48.05272" lon="7.01321">
        <ele>1217.2734375</ele>
        <time>2012-01-21T11:13:35Z</time>
      </trkpt>
      <trkpt lat="48.05291" lon="7.01326">
        <ele>1215.546875</ele>
        <time>2012-01-21T11:14:07Z</time>
      </trkpt>
      <trkpt lat="48.05297" lon="7.01323">
        <ele>1214.73828125</ele>
        <time>2012-01-21T11:14:11Z</time>
      </trkpt>
      <trkpt lat="48.05298" lon="7.01322">
        <ele>1214.51171875</ele>
        <time>2012-01-21T11:14:12Z</time>
      </trkpt>
      <trkpt lat="48.05303" lon="7.01316">
        <ele>1213.6328125</ele>
        <time>2012-01-21T11:14:16Z</time>
      </trkpt>
      <trkpt lat="48.05305" lon="7.01312">
        <ele>1213.171875</ele>
        <time>2012-01-21T11:14:20Z</time>
      </trkpt>
      <trkpt lat="48.05312" lon="7.01311">
        <ele>1212.27734375</ele>
        <time>2012-01-21T11:14:33Z</time>
      </trkpt>
      <trkpt lat="48.05321" lon="7.01303">
        <ele>1210.76171875</ele>
        <time>2012-01-21T11:14:49Z</time>
      </trkpt>
      <trkpt lat="48.05332" lon="7.01271">
        <ele>1207.87890625</ele>
        <time>2012-01-21T11:15:01Z</time>
      </trkpt>
      <trkpt lat="48.05334" lon="7.01268">
        <ele>1207.58984375</ele>
        <time>2012-01-21T11:15:03Z</time>
      </trkpt>
      <trkpt lat="48.05336" lon="7.01267">
        <ele>1207.47265625</ele>
        <time>2012-01-21T11:15:08Z</time>
      </trkpt>
      <trkpt lat="48.05342" lon="7.01266">
        <ele>1207.15625</ele>
        <time>2012-01-21T11:15:31Z</time>
      </trkpt>
      <trkpt lat="48.05351" lon="7.01266">
        <ele>1206.7421875</ele>
        <time>2012-01-21T11:15:39Z</time>
      </trkpt>
      <trkpt lat="48.0537" lon="7.01256">
        <ele>1205.1171875</ele>
        <time>2012-01-21T11:16:01Z</time>
      </trkpt>
      <trkpt lat="48.0537" lon="7.01256">
        <ele>1205.1171875</ele>
        <time>2012-01-21T11:16:30Z</time>
      </trkpt>
      <trkpt lat="48.05371" lon="7.01256">
        <ele>1205.09375</ele>
        <time>2012-01-21T11:16:38Z</time>
      </trkpt>
      <trkpt lat="48.05371" lon="7.01256">
        <ele>1205.09375</ele>
        <time>2012-01-21T11:16:53Z</time>
      </trkpt>
      <trkpt lat="48.05371" lon="7.01256">
        <ele>1205.09375</ele>
        <time>2012-01-21T11:16:56Z</time>
      </trkpt>
      <trkpt lat="48.05371" lon="7.01256">
        <ele>1205.09375</ele>
        <time>2012-01-21T11:17:05Z</time>
      </trkpt>
      <trkpt lat="48.05371" lon="7.01256">
        <ele>1205.0703125</ele>
        <time>2012-01-21T11:17:28Z</time>
      </trkpt>
      <trkpt lat="48.05371" lon="7.01256">
        <ele>1205.0703125</ele>
        <time>2012-01-21T11:17:38Z</time>
      </trkpt>
      <trkpt lat="48.05371" lon="7.01256">
        <ele>1205.0703125</ele>
        <time>2012-01-21T11:17:39Z</time>
      </trkpt>
      <trkpt lat="48.05371" lon="7.01256">
        <ele>1205.0703125</ele>
        <time>2012-01-21T11:17:41Z</time>
      </trkpt>
      <trkpt lat="48.05371" lon="7.01256">
        <ele>1205.0703125</ele>
        <time>2012-01-21T11:17:43Z</time>
      </trkpt>
      <trkpt lat="48.05371" lon="7.01256">
        <ele>1205.0703125</ele>
        <time>2012-01-21T11:17:44Z</time>
      </trkpt>
      <trkpt lat="48.05371" lon="7.01256">
        <ele>1205.0703125</ele>
        <time>2012-01-21T11:17:46Z</time>
      </trkpt>
      <trkpt lat="48.05371" lon="7.01256">
        <ele>1205.0703125</ele>
        <time>2012-01-21T11:17:47Z</time>
      </trkpt>
      <trkpt lat="48.05371" lon="7.01256">
        <ele>1205.0703125</ele>
        <time>2012-01-21T11:17:48Z</time>
      </trkpt>
      <trkpt lat="48.05371" lon="7.01256">
        <ele>1205.0703125</ele>
        <time>2012-01-21T11:17:50Z</time>
      </trkpt>
      <trkpt lat="48.05371" lon="7.01256">
        <ele>1205.0703125</ele>
        <time>2012-01-21T11:17:51Z</time>
      </trkpt>
      <trkpt lat="48.05371" lon="7.01256">
        <ele>1205.0703125</ele>
        <time>2012-01-21T11:17:54Z</time>
      </trkpt>
      <trkpt lat="48.05371" lon="7.01256">
        <ele>1205.0703125</ele>
        <time>2012-01-21T11:17:55Z</time>
      </trkpt>
      <trkpt lat="48.05372" lon="7.01256">
        <ele>1205.078125</ele>
        <time>2012-01-21T11:18:00Z</time>
      </trkpt>
      <trkpt lat="48.05372" lon="7.01256">
        <ele>1205.078125</ele>
        <time>2012-01-21T11:18:01Z</time>
      </trkpt>
      <trkpt lat="48.05372" lon="7.01256">
        <ele>1205.078125</ele>
        <time>2012-01-21T11:18:05Z</time>
      </trkpt>
      <trkpt lat="48.05372" lon="7.01256">
        <ele>1205.078125</ele>
        <time>2012-01-21T11:18:07Z</time>
      </trkpt>
      <trkpt lat="48.05372" lon="7.01256">
        <ele>1205.078125</ele>
        <time>2012-01-21T11:18:08Z</time>
      </trkpt>
      <trkpt lat="48.05372" lon="7.01256">
        <ele>1205.078125</ele>
        <time>2012-01-21T11:18:15Z</time>
      </trkpt>
      <trkpt lat="48.05372" lon="7.01256">
        <ele>1205.078125</ele>
        <time>2012-01-21T11:18:18Z</time>
      </trkpt>
      <trkpt lat="48.05372" lon="7.01256">
        <ele>1205.078125</ele>
        <time>2012-01-21T11:18:19Z</time>
      </trkpt>
      <trkpt lat="48.05372" lon="7.01256">
        <ele>1205.078125</ele>
        <time>2012-01-21T11:18:22Z</time>
      </trkpt>
      <trkpt lat="48.05372" lon="7.01256">
        <ele>1205.078125</ele>
        <time>2012-01-21T11:18:23Z</time>
      </trkpt>
      <trkpt lat="48.05378" lon="7.01246">
        <ele>1203.8671875</ele>
        <time>2012-01-21T11:19:12Z</time>
      </trkpt>
      <trkpt lat="48.0538" lon="7.01238">
        <ele>1203.09375</ele>
        <time>2012-01-21T11:19:17Z</time>
      </trkpt>
      <trkpt lat="48.05382" lon="7.01229">
        <ele>1202.3828125</ele>
        <time>2012-01-21T11:19:24Z</time>
      </trkpt>
      <trkpt lat="48.05383" lon="7.01224">
        <ele>1201.9765625</ele>
        <time>2012-01-21T11:19:29Z</time>
      </trkpt>
      <trkpt lat="48.05384" lon="7.01221">
        <ele>1201.63671875</ele>
        <time>2012-01-21T11:19:32Z</time>
      </trkpt>
      <trkpt lat="48.05387" lon="7.01211">
        <ele>1200.73046875</ele>
        <time>2012-01-21T11:19:44Z</time>
      </trkpt>
      <trkpt lat="48.05389" lon="7.01206">
        <ele>1200.171875</ele>
        <time>2012-01-21T11:19:55Z</time>
      </trkpt>
      <trkpt lat="48.0539" lon="7.012">
        <ele>1199.6875</ele>
        <time>2012-01-21T11:19:59Z</time>
      </trkpt>
      <trkpt lat="48.05385" lon="7.01191">
        <ele>1199.35546875</ele>
        <time>2012-01-21T11:20:08Z</time>
      </trkpt>
      <trkpt lat="48.05383" lon="7.01186">
        <ele>1199.09765625</ele>
        <time>2012-01-21T11:20:14Z</time>
      </trkpt>
      <trkpt lat="48.0538" lon="7.01166">
        <ele>1197.921875</ele>
        <time>2012-01-21T11:20:26Z</time>
      </trkpt>
      <trkpt lat="48.05378" lon="7.01158">
        <ele>1197.46484375</ele>
        <time>2012-01-21T11:20:30Z</time>
      </trkpt>
      <trkpt lat="48.05377" lon="7.01154">
        <ele>1197.2421875</ele>
        <time>2012-01-21T11:20:32Z</time>
      </trkpt>
      <trkpt lat="48.05376" lon="7.0114">
        <ele>1196.21484375</ele>
        <time>2012-01-21T11:20:45Z</time>
      </trkpt>
      <trkpt lat="48.05377" lon="7.01134">
        <ele>1195.70703125</ele>
        <time>2012-01-21T11:20:48Z</time>
      </trkpt>
      <trkpt lat="48.0538" lon="7.01126">
        <ele>1194.83984375</ele>
        <time>2012-01-21T11:21:02Z</time>
      </trkpt>
      <trkpt lat="48.05381" lon="7.01125">
        <ele>1194.6953125</ele>
        <time>2012-01-21T11:21:16Z</time>
      </trkpt>
      <trkpt lat="48.05381" lon="7.01125">
        <ele>1194.6953125</ele>
        <time>2012-01-21T11:21:31Z</time>
      </trkpt>
      <trkpt lat="48.05381" lon="7.01125">
        <ele>1194.65625</ele>
        <time>2012-01-21T11:21:40Z</time>
      </trkpt>
      <trkpt lat="48.05381" lon="7.01125">
        <ele>1194.65625</ele>
        <time>2012-01-21T11:21:41Z</time>
      </trkpt>
      <trkpt lat="48.05381" lon="7.01125">
        <ele>1194.65625</ele>
        <time>2012-01-21T11:21:43Z</time>
      </trkpt>
      <trkpt lat="48.05386" lon="7.01123">
        <ele>1193.9921875</ele>
        <time>2012-01-21T11:21:50Z</time>
      </trkpt>
      <trkpt lat="48.05388" lon="7.01119">
        <ele>1193.53125</ele>
        <time>2012-01-21T11:21:55Z</time>
      </trkpt>
      <trkpt lat="48.05384" lon="7.01098">
        <ele>1192.30859375</ele>
        <time>2012-01-21T11:22:07Z</time>
      </trkpt>
      <trkpt lat="48.05386" lon="7.01092">
        <ele>1191.65234375</ele>
        <time>2012-01-21T11:22:12Z</time>
      </trkpt>
      <trkpt lat="48.0538" lon="7.01088">
        <ele>1191.8828125</ele>
        <time>2012-01-21T11:22:20Z</time>
      </trkpt>
      <trkpt lat="48.05377" lon="7.01076">
        <ele>1191.3359375</ele>
        <time>2012-01-21T11:22:28Z</time>
      </trkpt>
      <trkpt lat="48.05377" lon="7.01062">
        <ele>1189.88671875</ele>
        <time>2012-01-21T11:22:37Z</time>
      </trkpt>
      <trkpt lat="48.05378" lon="7.01059">
        <ele>1189.41796875</ele>
        <time>2012-01-21T11:22:40Z</time>
      </trkpt>
      <trkpt lat="48.05378" lon="7.01047">
        <ele>1188.10546875</ele>
        <time>2012-01-21T11:22:48Z</time>
      </trkpt>
      <trkpt lat="48.05378" lon="7.01034">
        <ele>1186.7890625</ele>
        <time>2012-01-21T11:22:56Z</time>
      </trkpt>
      <trkpt lat="48.05371" lon="7.01016">
        <ele>1185.375</ele>
        <time>2012-01-21T11:23:06Z</time>
      </trkpt>
      <trkpt lat="48.05365" lon="7.01001">
        <ele>1184.1796875</ele>
        <time>2012-01-21T11:23:16Z</time>
      </trkpt>
      <trkpt lat="48.05365" lon="7.00988">
        <ele>1182.68359375</ele>
        <time>2012-01-21T11:23:26Z</time>
      </trkpt>
      <trkpt lat="48.05363" lon="7.00975">
        <ele>1181.015625</ele>
        <time>2012-01-21T11:23:35Z</time>
      </trkpt>
      <trkpt lat="48.05363" lon="7.00973">
        <ele>1180.82421875</ele>
        <time>2012-01-21T11:23:36Z</time>
      </trkpt>
      <trkpt lat="48.05364" lon="7.00964">
        <ele>1179.53125</ele>
        <time>2012-01-21T11:23:43Z</time>
      </trkpt>
      <trkpt lat="48.05365" lon="7.00955">
        <ele>1178.140625</ele>
        <time>2012-01-21T11:23:53Z</time>
      </trkpt>
      <trkpt lat="48.05364" lon="7.00954">
        <ele>1178.0703125</ele>
        <time>2012-01-21T11:23:55Z</time>
      </trkpt>
      <trkpt lat="48.0536" lon="7.00943">
        <ele>1176.83984375</ele>
        <time>2012-01-21T11:24:07Z</time>
      </trkpt>
      <trkpt lat="48.05362" lon="7.00933">
        <ele>1175.359375</ele>
        <time>2012-01-21T11:24:18Z</time>
      </trkpt>
      <trkpt lat="48.05362" lon="7.00929">
        <ele>1174.703125</ele>
        <time>2012-01-21T11:24:23Z</time>
      </trkpt>
      <trkpt lat="48.05364" lon="7.00919">
        <ele>1173.24609375</ele>
        <time>2012-01-21T11:24:29Z</time>
      </trkpt>
      <trkpt lat="48.05364" lon="7.00914">
        <ele>1172.6171875</ele>
        <time>2012-01-21T11:24:35Z</time>
      </trkpt>
      <trkpt lat="48.05362" lon="7.00904">
        <ele>1171.21484375</ele>
        <time>2012-01-21T11:24:47Z</time>
      </trkpt>
      <trkpt lat="48.0536" lon="7.00899">
        <ele>1170.62890625</ele>
        <time>2012-01-21T11:24:52Z</time>
      </trkpt>
      <trkpt lat="48.05364" lon="7.00888">
        <ele>1168.7890625</ele>
        <time>2012-01-21T11:25:08Z</time>
      </trkpt>
      <trkpt lat="48.05367" lon="7.00881">
        <ele>1167.5234375</ele>
        <time>2012-01-21T11:25:13Z</time>
      </trkpt>
      <trkpt lat="48.05376" lon="7.00871">
        <ele>1165.4765625</ele>
        <time>2012-01-21T11:25:23Z</time>
      </trkpt>
      <trkpt lat="48.05376" lon="7.00866">
        <ele>1164.78515625</ele>
        <time>2012-01-21T11:25:27Z</time>
      </trkpt>
      <trkpt lat="48.05376" lon="7.00864">
        <ele>1164.53515625</ele>
        <time>2012-01-21T11:25:30Z</time>
      </trkpt>
      <trkpt lat="48.05374" lon="7.00841">
        <ele>1161.25390625</ele>
        <time>2012-01-21T11:26:01Z</time>
      </trkpt>
      <trkpt lat="48.05372" lon="7.00834">
        <ele>1160.23828125</ele>
        <time>2012-01-21T11:26:09Z</time>
      </trkpt>
      <trkpt lat="48.05371" lon="7.00826">
        <ele>1159.0625</ele>
        <time>2012-01-21T11:26:12Z</time>
      </trkpt>
      <trkpt lat="48.0537" lon="7.00821">
        <ele>1158.35546875</ele>
        <time>2012-01-21T11:26:14Z</time>
      </trkpt>
      <trkpt lat="48.0537" lon="7.00813">
        <ele>1157.125</ele>
        <time>2012-01-21T11:26:20Z</time>
      </trkpt>
      <trkpt lat="48.0537" lon="7.00813">
        <ele>1157.125</ele>
        <time>2012-01-21T11:26:22Z</time>
      </trkpt>
      <trkpt lat="48.05366" lon="7.00807">
        <ele>1156.3359375</ele>
        <time>2012-01-21T11:26:34Z</time>
      </trkpt>
      <trkpt lat="48.05364" lon="7.00797">
        <ele>1154.7265625</ele>
        <time>2012-01-21T11:26:51Z</time>
      </trkpt>
      <trkpt lat="48.05361" lon="7.0079">
        <ele>1153.734375</ele>
        <time>2012-01-21T11:27:13Z</time>
      </trkpt>
      <trkpt lat="48.05362" lon="7.0078">
        <ele>1152.0703125</ele>
        <time>2012-01-21T11:27:34Z</time>
      </trkpt>
      <trkpt lat="48.05365" lon="7.00767">
        <ele>1149.80078125</ele>
        <time>2012-01-21T11:27:44Z</time>
      </trkpt>
      <trkpt lat="48.05364" lon="7.00764">
        <ele>1149.4140625</ele>
        <time>2012-01-21T11:27:48Z</time>
      </trkpt>
      <trkpt lat="48.05364" lon="7.00764">
        <ele>1149.4140625</ele>
        <time>2012-01-21T11:27:50Z</time>
      </trkpt>
      <trkpt lat="48.05361" lon="7.0075">
        <ele>1147.2265625</ele>
        <time>2012-01-21T11:28:06Z</time>
      </trkpt>
      <trkpt lat="48.05365" lon="7.00721">
        <ele>1142.3203125</ele>
        <time>2012-01-21T11:28:23Z</time>
      </trkpt>
      <trkpt lat="48.05366" lon="7.00714">
        <ele>1141.02734375</ele>
        <time>2012-01-21T11:28:27Z</time>
      </trkpt>
      <trkpt lat="48.05368" lon="7.00705">
        <ele>1139.50390625</ele>
        <time>2012-01-21T11:28:32Z</time>
      </trkpt>
      <trkpt lat="48.05372" lon="7.00686">
        <ele>1136.3359375</ele>
        <time>2012-01-21T11:28:44Z</time>
      </trkpt>
      <trkpt lat="48.05372" lon="7.00685">
        <ele>1136.078125</ele>
        <time>2012-01-21T11:28:53Z</time>
      </trkpt>
      <trkpt lat="48.0537" lon="7.00679">
        <ele>1135.1953125</ele>
        <time>2012-01-21T11:29:27Z</time>
      </trkpt>
      <trkpt lat="48.05368" lon="7.00678">
        <ele>1135.0078125</ele>
        <time>2012-01-21T11:29:30Z</time>
      </trkpt>
      <trkpt lat="48.05365" lon="7.00669">
        <ele>1133.546875</ele>
        <time>2012-01-21T11:29:35Z</time>
      </trkpt>
      <trkpt lat="48.05362" lon="7.00665">
        <ele>1132.9140625</ele>
        <time>2012-01-21T11:29:38Z</time>
      </trkpt>
      <trkpt lat="48.05361" lon="7.00663">
        <ele>1132.67578125</ele>
        <time>2012-01-21T11:29:39Z</time>
      </trkpt>
      <trkpt lat="48.05357" lon="7.0065">
        <ele>1130.51171875</ele>
        <time>2012-01-21T11:29:45Z</time>
      </trkpt>
      <trkpt lat="48.05358" lon="7.0064">
        <ele>1128.734375</ele>
        <time>2012-01-21T11:29:49Z</time>
      </trkpt>
      <trkpt lat="48.05358" lon="7.00634">
        <ele>1127.79296875</ele>
        <time>2012-01-21T11:29:51Z</time>
      </trkpt>
      <trkpt lat="48.0536" lon="7.00625">
        <ele>1126.140625</ele>
        <time>2012-01-21T11:29:55Z</time>
      </trkpt>
      <trkpt lat="48.05363" lon="7.00616">
        <ele>1124.62109375</ele>
        <time>2012-01-21T11:29:59Z</time>
      </trkpt>
      <trkpt lat="48.05369" lon="7.00599">
        <ele>1121.9375</ele>
        <time>2012-01-21T11:30:08Z</time>
      </trkpt>
      <trkpt lat="48.05371" lon="7.00594">
        <ele>1121.1484375</ele>
        <time>2012-01-21T11:30:10Z</time>
      </trkpt>
      <trkpt lat="48.05374" lon="7.00583">
        <ele>1119.51953125</ele>
        <time>2012-01-21T11:30:14Z</time>
      </trkpt>
      <trkpt lat="48.05382" lon="7.0056">
        <ele>1115.70703125</ele>
        <time>2012-01-21T11:30:27Z</time>
      </trkpt>
      <trkpt lat="48.05383" lon="7.00554">
        <ele>1114.68359375</ele>
        <time>2012-01-21T11:30:30Z</time>
      </trkpt>
      <trkpt lat="48.05386" lon="7.00543">
        <ele>1112.953125</ele>
        <time>2012-01-21T11:30:35Z</time>
      </trkpt>
      <trkpt lat="48.05395" lon="7.00517">
        <ele>1108.86328125</ele>
        <time>2012-01-21T11:30:49Z</time>
      </trkpt>
      <trkpt lat="48.05403" lon="7.00505">
        <ele>1107.46875</ele>
        <time>2012-01-21T11:31:05Z</time>
      </trkpt>
      <trkpt lat="48.05404" lon="7.00504">
        <ele>1107.27734375</ele>
        <time>2012-01-21T11:31:06Z</time>
      </trkpt>
      <trkpt lat="48.05413" lon="7.00496">
        <ele>1106.29296875</ele>
        <time>2012-01-21T11:31:15Z</time>
      </trkpt>
      <trkpt lat="48.05422" lon="7.00494">
        <ele>1106.26171875</ele>
        <time>2012-01-21T11:31:28Z</time>
      </trkpt>
      <trkpt lat="48.05425" lon="7.00494">
        <ele>1106.26953125</ele>
        <time>2012-01-21T11:32:04Z</time>
      </trkpt>
      <trkpt lat="48.05428" lon="7.00493">
        <ele>1106.21484375</ele>
        <time>2012-01-21T11:32:37Z</time>
      </trkpt>
    </trkseg>
  </trk>
</gpx>